<?xml version="1.0" encoding="UTF-8" standalone="no" ?>
<gpx xmlns="http://www.topografix.com/GPX/1/1" xmlns:xsi="http://www.w3.org/2001/XMLSchema-instance" xsi:schemaLocation="http://www.topografix.com/GPX/1/1 http://www.topografix.com/GPX/1/1/gpx.xsd" version="1.1" creator="VisuGPX - https://www.visugpx.com">
  <metadata>
    <name>Les moulins de Chaméane-le Vernet</name>
  </metadata>
  <trk>
    <name><![CDATA[Les moulins de Chaméane - 18010 - UtagawaVTT.com]]></name>
    <extensions>
      <line xmlns="http://www.topografix.com/GPX/gpx_style/0/2">
        <color>0000FF</color>
        <width>4</width>
      </line>
    </extensions>
    <trkseg>
      <trkpt lat="45.55155" lon="3.37392">
        <ele>460.111237</ele>
        <time>2018-04-30T15:16:46Z</time>
      </trkpt>
      <trkpt lat="45.55225" lon="3.37693">
        <ele>467.001312</ele>
        <time>2018-04-30T15:18:14Z</time>
      </trkpt>
      <trkpt lat="45.55184" lon="3.37995">
        <ele>468.842499</ele>
        <time>2018-04-30T15:19:40Z</time>
      </trkpt>
      <trkpt lat="45.55116" lon="3.38056">
        <ele>461.839386</ele>
        <time>2018-04-30T15:20:12Z</time>
      </trkpt>
      <trkpt lat="45.55118" lon="3.38093">
        <ele>461.752502</ele>
        <time>2018-04-30T15:20:22Z</time>
      </trkpt>
      <trkpt lat="45.5518" lon="3.38187">
        <ele>462.130524</ele>
        <time>2018-04-30T15:20:58Z</time>
      </trkpt>
      <trkpt lat="45.55185" lon="3.38226">
        <ele>459.237518</ele>
        <time>2018-04-30T15:21:10Z</time>
      </trkpt>
      <trkpt lat="45.55152" lon="3.3831">
        <ele>450.713776</ele>
        <time>2018-04-30T15:21:37Z</time>
      </trkpt>
      <trkpt lat="45.55148" lon="3.38382">
        <ele>455.608398</ele>
        <time>2018-04-30T15:21:57Z</time>
      </trkpt>
      <trkpt lat="45.55125" lon="3.38446">
        <ele>463.249603</ele>
        <time>2018-04-30T15:22:17Z</time>
      </trkpt>
      <trkpt lat="45.55111" lon="3.3848">
        <ele>466.350159</ele>
        <time>2018-04-30T15:22:28Z</time>
      </trkpt>
      <trkpt lat="45.55102" lon="3.38508">
        <ele>468.590454</ele>
        <time>2018-04-30T15:22:37Z</time>
      </trkpt>
      <trkpt lat="45.55098" lon="3.38536">
        <ele>471.42749</ele>
        <time>2018-04-30T15:22:45Z</time>
      </trkpt>
      <trkpt lat="45.55087" lon="3.38588">
        <ele>474.92749</ele>
        <time>2018-04-30T15:23:00Z</time>
      </trkpt>
      <trkpt lat="45.55085" lon="3.38615">
        <ele>479.679626</ele>
        <time>2018-04-30T15:23:08Z</time>
      </trkpt>
      <trkpt lat="45.55077" lon="3.38655">
        <ele>485.528198</ele>
        <time>2018-04-30T15:23:20Z</time>
      </trkpt>
      <trkpt lat="45.5507" lon="3.38681">
        <ele>487.848755</ele>
        <time>2018-04-30T15:23:27Z</time>
      </trkpt>
      <trkpt lat="45.55066" lon="3.3872">
        <ele>493.541504</ele>
        <time>2018-04-30T15:23:39Z</time>
      </trkpt>
      <trkpt lat="45.55064" lon="3.38774">
        <ele>499.871979</ele>
        <time>2018-04-30T15:23:54Z</time>
      </trkpt>
      <trkpt lat="45.55054" lon="3.38869">
        <ele>510.576416</ele>
        <time>2018-04-30T15:24:21Z</time>
      </trkpt>
      <trkpt lat="45.55049" lon="3.38896">
        <ele>513.629456</ele>
        <time>2018-04-30T15:24:29Z</time>
      </trkpt>
      <trkpt lat="45.55033" lon="3.38948">
        <ele>519.345032</ele>
        <time>2018-04-30T15:24:45Z</time>
      </trkpt>
      <trkpt lat="45.55029" lon="3.38974">
        <ele>523.807434</ele>
        <time>2018-04-30T15:24:53Z</time>
      </trkpt>
      <trkpt lat="45.55017" lon="3.39027">
        <ele>528.559387</ele>
        <time>2018-04-30T15:25:08Z</time>
      </trkpt>
      <trkpt lat="45.55007" lon="3.39066">
        <ele>532.958618</ele>
        <time>2018-04-30T15:25:20Z</time>
      </trkpt>
      <trkpt lat="45.55003" lon="3.39108">
        <ele>539.947571</ele>
        <time>2018-04-30T15:25:32Z</time>
      </trkpt>
      <trkpt lat="45.54999" lon="3.39135">
        <ele>542.718872</ele>
        <time>2018-04-30T15:25:40Z</time>
      </trkpt>
      <trkpt lat="45.55002" lon="3.39191">
        <ele>551.078552</ele>
        <time>2018-04-30T15:25:56Z</time>
      </trkpt>
      <trkpt lat="45.55005" lon="3.39232">
        <ele>556.622314</ele>
        <time>2018-04-30T15:26:07Z</time>
      </trkpt>
      <trkpt lat="45.55013" lon="3.39257">
        <ele>562.390198</ele>
        <time>2018-04-30T15:26:15Z</time>
      </trkpt>
      <trkpt lat="45.5502" lon="3.39296">
        <ele>569.018188</ele>
        <time>2018-04-30T15:26:26Z</time>
      </trkpt>
      <trkpt lat="45.55026" lon="3.39336">
        <ele>573.584534</ele>
        <time>2018-04-30T15:26:38Z</time>
      </trkpt>
      <trkpt lat="45.55027" lon="3.39363">
        <ele>575.339722</ele>
        <time>2018-04-30T15:26:46Z</time>
      </trkpt>
      <trkpt lat="45.55009" lon="3.39436">
        <ele>580.946228</ele>
        <time>2018-04-30T15:27:08Z</time>
      </trkpt>
      <trkpt lat="45.55019" lon="3.3946">
        <ele>583.066895</ele>
        <time>2018-04-30T15:27:16Z</time>
      </trkpt>
      <trkpt lat="45.55028" lon="3.39484">
        <ele>584.998535</ele>
        <time>2018-04-30T15:27:23Z</time>
      </trkpt>
      <trkpt lat="45.55043" lon="3.39502">
        <ele>585.940002</ele>
        <time>2018-04-30T15:27:31Z</time>
      </trkpt>
      <trkpt lat="45.55051" lon="3.39525">
        <ele>589.165955</ele>
        <time>2018-04-30T15:27:38Z</time>
      </trkpt>
      <trkpt lat="45.55073" lon="3.39571">
        <ele>593.261047</ele>
        <time>2018-04-30T15:27:54Z</time>
      </trkpt>
      <trkpt lat="45.55074" lon="3.39595">
        <ele>596.684387</ele>
        <time>2018-04-30T15:28:01Z</time>
      </trkpt>
      <trkpt lat="45.5507" lon="3.39622">
        <ele>601.842651</ele>
        <time>2018-04-30T15:28:09Z</time>
      </trkpt>
      <trkpt lat="45.55059" lon="3.39645">
        <ele>606.211548</ele>
        <time>2018-04-30T15:28:17Z</time>
      </trkpt>
      <trkpt lat="45.55043" lon="3.39662">
        <ele>611.610352</ele>
        <time>2018-04-30T15:28:25Z</time>
      </trkpt>
      <trkpt lat="45.55023" lon="3.39661">
        <ele>616.318176</ele>
        <time>2018-04-30T15:28:33Z</time>
      </trkpt>
      <trkpt lat="45.54996" lon="3.3967">
        <ele>620.667542</ele>
        <time>2018-04-30T15:28:44Z</time>
      </trkpt>
      <trkpt lat="45.54986" lon="3.39677">
        <ele>622.841187</ele>
        <time>2018-04-30T15:28:48Z</time>
      </trkpt>
      <trkpt lat="45.54971" lon="3.39695">
        <ele>626.226746</ele>
        <time>2018-04-30T15:28:56Z</time>
      </trkpt>
      <trkpt lat="45.54934" lon="3.39715">
        <ele>631.567383</ele>
        <time>2018-04-30T15:29:12Z</time>
      </trkpt>
      <trkpt lat="45.54884" lon="3.39727">
        <ele>637.023254</ele>
        <time>2018-04-30T15:29:32Z</time>
      </trkpt>
      <trkpt lat="45.54847" lon="3.39739">
        <ele>641.485901</ele>
        <time>2018-04-30T15:29:48Z</time>
      </trkpt>
      <trkpt lat="45.54827" lon="3.39747">
        <ele>642.91095</ele>
        <time>2018-04-30T15:29:56Z</time>
      </trkpt>
      <trkpt lat="45.54815" lon="3.39771">
        <ele>646.423767</ele>
        <time>2018-04-30T15:30:04Z</time>
      </trkpt>
      <trkpt lat="45.54807" lon="3.39795">
        <ele>650.531555</ele>
        <time>2018-04-30T15:30:12Z</time>
      </trkpt>
      <trkpt lat="45.54795" lon="3.39817">
        <ele>653.737061</ele>
        <time>2018-04-30T15:30:20Z</time>
      </trkpt>
      <trkpt lat="45.54774" lon="3.39846">
        <ele>656.558228</ele>
        <time>2018-04-30T15:30:31Z</time>
      </trkpt>
      <trkpt lat="45.54751" lon="3.3987">
        <ele>659.428772</ele>
        <time>2018-04-30T15:30:43Z</time>
      </trkpt>
      <trkpt lat="45.54728" lon="3.39895">
        <ele>661.963135</ele>
        <time>2018-04-30T15:30:55Z</time>
      </trkpt>
      <trkpt lat="45.54704" lon="3.39936">
        <ele>666.840881</ele>
        <time>2018-04-30T15:31:10Z</time>
      </trkpt>
      <trkpt lat="45.54686" lon="3.39987">
        <ele>665.982361</ele>
        <time>2018-04-30T15:31:25Z</time>
      </trkpt>
      <trkpt lat="45.54674" lon="3.40009">
        <ele>664.982544</ele>
        <time>2018-04-30T15:31:33Z</time>
      </trkpt>
      <trkpt lat="45.54659" lon="3.40024">
        <ele>664.509888</ele>
        <time>2018-04-30T15:31:41Z</time>
      </trkpt>
      <trkpt lat="45.54638" lon="3.40034">
        <ele>663.84314</ele>
        <time>2018-04-30T15:31:50Z</time>
      </trkpt>
      <trkpt lat="45.54608" lon="3.40054">
        <ele>663.707275</ele>
        <time>2018-04-30T15:32:03Z</time>
      </trkpt>
      <trkpt lat="45.54599" lon="3.40087">
        <ele>663.501099</ele>
        <time>2018-04-30T15:32:13Z</time>
      </trkpt>
      <trkpt lat="45.54592" lon="3.401">
        <ele>663.685181</ele>
        <time>2018-04-30T15:32:17Z</time>
      </trkpt>
      <trkpt lat="45.54575" lon="3.40113">
        <ele>664.497375</ele>
        <time>2018-04-30T15:32:25Z</time>
      </trkpt>
      <trkpt lat="45.54564" lon="3.40115">
        <ele>664.671692</ele>
        <time>2018-04-30T15:32:29Z</time>
      </trkpt>
      <trkpt lat="45.54525" lon="3.40122">
        <ele>663.25647</ele>
        <time>2018-04-30T15:32:45Z</time>
      </trkpt>
      <trkpt lat="45.54509" lon="3.40136">
        <ele>661.714478</ele>
        <time>2018-04-30T15:32:53Z</time>
      </trkpt>
      <trkpt lat="45.54494" lon="3.40171">
        <ele>661.547974</ele>
        <time>2018-04-30T15:33:04Z</time>
      </trkpt>
      <trkpt lat="45.54488" lon="3.40197">
        <ele>662.520691</ele>
        <time>2018-04-30T15:33:12Z</time>
      </trkpt>
      <trkpt lat="45.54487" lon="3.40223">
        <ele>664.172791</ele>
        <time>2018-04-30T15:33:19Z</time>
      </trkpt>
      <trkpt lat="45.54489" lon="3.40267">
        <ele>666.728943</ele>
        <time>2018-04-30T15:33:32Z</time>
      </trkpt>
      <trkpt lat="45.5449" lon="3.40295">
        <ele>668.003845</ele>
        <time>2018-04-30T15:33:40Z</time>
      </trkpt>
      <trkpt lat="45.54492" lon="3.40321">
        <ele>669.557678</ele>
        <time>2018-04-30T15:33:47Z</time>
      </trkpt>
      <trkpt lat="45.5449" lon="3.4035">
        <ele>671.63147</ele>
        <time>2018-04-30T15:33:56Z</time>
      </trkpt>
      <trkpt lat="45.54487" lon="3.40365">
        <ele>672.671936</ele>
        <time>2018-04-30T15:34:00Z</time>
      </trkpt>
      <trkpt lat="45.54473" lon="3.40385">
        <ele>673.862488</ele>
        <time>2018-04-30T15:34:08Z</time>
      </trkpt>
      <trkpt lat="45.54437" lon="3.4045">
        <ele>677.144592</ele>
        <time>2018-04-30T15:34:31Z</time>
      </trkpt>
      <trkpt lat="45.54423" lon="3.40471">
        <ele>678.113342</ele>
        <time>2018-04-30T15:34:39Z</time>
      </trkpt>
      <trkpt lat="45.54414" lon="3.40495">
        <ele>679.679077</ele>
        <time>2018-04-30T15:34:47Z</time>
      </trkpt>
      <trkpt lat="45.54411" lon="3.40522">
        <ele>682.04248</ele>
        <time>2018-04-30T15:34:54Z</time>
      </trkpt>
      <trkpt lat="45.54405" lon="3.40549">
        <ele>683.97998</ele>
        <time>2018-04-30T15:35:02Z</time>
      </trkpt>
      <trkpt lat="45.54382" lon="3.4061">
        <ele>687.36499</ele>
        <time>2018-04-30T15:35:22Z</time>
      </trkpt>
      <trkpt lat="45.54356" lon="3.40706">
        <ele>694.759766</ele>
        <time>2018-04-30T15:35:51Z</time>
      </trkpt>
      <trkpt lat="45.54349" lon="3.40719">
        <ele>695.57428</ele>
        <time>2018-04-30T15:35:55Z</time>
      </trkpt>
      <trkpt lat="45.54329" lon="3.40749">
        <ele>697.506348</ele>
        <time>2018-04-30T15:36:07Z</time>
      </trkpt>
      <trkpt lat="45.54285" lon="3.40804">
        <ele>700.974609</ele>
        <time>2018-04-30T15:36:30Z</time>
      </trkpt>
      <trkpt lat="45.54258" lon="3.40842">
        <ele>701.702881</ele>
        <time>2018-04-30T15:36:45Z</time>
      </trkpt>
      <trkpt lat="45.54245" lon="3.40865">
        <ele>701.424011</ele>
        <time>2018-04-30T15:36:53Z</time>
      </trkpt>
      <trkpt lat="45.54225" lon="3.4093">
        <ele>702.849365</ele>
        <time>2018-04-30T15:37:13Z</time>
      </trkpt>
      <trkpt lat="45.54212" lon="3.40952">
        <ele>702.471191</ele>
        <time>2018-04-30T15:37:21Z</time>
      </trkpt>
      <trkpt lat="45.54185" lon="3.40974">
        <ele>700.277954</ele>
        <time>2018-04-30T15:37:34Z</time>
      </trkpt>
      <trkpt lat="45.54169" lon="3.40995">
        <ele>700.491882</ele>
        <time>2018-04-30T15:37:43Z</time>
      </trkpt>
      <trkpt lat="45.54156" lon="3.41022">
        <ele>701.640015</ele>
        <time>2018-04-30T15:37:52Z</time>
      </trkpt>
      <trkpt lat="45.54147" lon="3.41051">
        <ele>701.419067</ele>
        <time>2018-04-30T15:38:01Z</time>
      </trkpt>
      <trkpt lat="45.54146" lon="3.41078">
        <ele>702.442505</ele>
        <time>2018-04-30T15:38:08Z</time>
      </trkpt>
      <trkpt lat="45.54151" lon="3.4111">
        <ele>703.544983</ele>
        <time>2018-04-30T15:38:17Z</time>
      </trkpt>
      <trkpt lat="45.54153" lon="3.41144">
        <ele>701.855896</ele>
        <time>2018-04-30T15:38:27Z</time>
      </trkpt>
      <trkpt lat="45.54152" lon="3.41174">
        <ele>696.027527</ele>
        <time>2018-04-30T15:38:35Z</time>
      </trkpt>
      <trkpt lat="45.54155" lon="3.41191">
        <ele>694.23645</ele>
        <time>2018-04-30T15:38:40Z</time>
      </trkpt>
      <trkpt lat="45.54166" lon="3.41216">
        <ele>692.375</ele>
        <time>2018-04-30T15:38:48Z</time>
      </trkpt>
      <trkpt lat="45.54185" lon="3.41245">
        <ele>691.849976</ele>
        <time>2018-04-30T15:39:00Z</time>
      </trkpt>
      <trkpt lat="45.54192" lon="3.41263">
        <ele>690.200012</ele>
        <time>2018-04-30T15:39:05Z</time>
      </trkpt>
      <trkpt lat="45.54196" lon="3.41284">
        <ele>688.215515</ele>
        <time>2018-04-30T15:39:12Z</time>
      </trkpt>
      <trkpt lat="45.54212" lon="3.41309">
        <ele>686.806274</ele>
        <time>2018-04-30T15:39:21Z</time>
      </trkpt>
      <trkpt lat="45.54214" lon="3.41326">
        <ele>684.013428</ele>
        <time>2018-04-30T15:39:26Z</time>
      </trkpt>
      <trkpt lat="45.54215" lon="3.41356">
        <ele>684.908386</ele>
        <time>2018-04-30T15:39:34Z</time>
      </trkpt>
      <trkpt lat="45.54196" lon="3.41365">
        <ele>683.359009</ele>
        <time>2018-04-30T15:39:42Z</time>
      </trkpt>
      <trkpt lat="45.54177" lon="3.41378">
        <ele>684.58429</ele>
        <time>2018-04-30T15:39:50Z</time>
      </trkpt>
      <trkpt lat="45.54161" lon="3.41395">
        <ele>687.418762</ele>
        <time>2018-04-30T15:39:58Z</time>
      </trkpt>
      <trkpt lat="45.54151" lon="3.41395">
        <ele>687.971741</ele>
        <time>2018-04-30T15:40:02Z</time>
      </trkpt>
      <trkpt lat="45.54113" lon="3.41406">
        <ele>692.690857</ele>
        <time>2018-04-30T15:40:18Z</time>
      </trkpt>
      <trkpt lat="45.54104" lon="3.41407">
        <ele>693.400879</ele>
        <time>2018-04-30T15:40:21Z</time>
      </trkpt>
      <trkpt lat="45.54083" lon="3.41413">
        <ele>695.516357</ele>
        <time>2018-04-30T15:40:30Z</time>
      </trkpt>
      <trkpt lat="45.54054" lon="3.41425">
        <ele>699.982788</ele>
        <time>2018-04-30T15:40:42Z</time>
      </trkpt>
      <trkpt lat="45.54035" lon="3.41425">
        <ele>700.797302</ele>
        <time>2018-04-30T15:40:50Z</time>
      </trkpt>
      <trkpt lat="45.53995" lon="3.4141">
        <ele>698.467407</ele>
        <time>2018-04-30T15:41:06Z</time>
      </trkpt>
      <trkpt lat="45.53963" lon="3.41405">
        <ele>697.815857</ele>
        <time>2018-04-30T15:41:19Z</time>
      </trkpt>
      <trkpt lat="45.53941" lon="3.41406">
        <ele>698.067993</ele>
        <time>2018-04-30T15:41:28Z</time>
      </trkpt>
      <trkpt lat="45.53903" lon="3.41428">
        <ele>699.921875</ele>
        <time>2018-04-30T15:41:44Z</time>
      </trkpt>
      <trkpt lat="45.53888" lon="3.41449">
        <ele>700.763733</ele>
        <time>2018-04-30T15:41:52Z</time>
      </trkpt>
      <trkpt lat="45.53849" lon="3.41498">
        <ele>692.881104</ele>
        <time>2018-04-30T15:42:13Z</time>
      </trkpt>
      <trkpt lat="45.53844" lon="3.41514">
        <ele>691.031982</ele>
        <time>2018-04-30T15:42:18Z</time>
      </trkpt>
      <trkpt lat="45.5384" lon="3.41555">
        <ele>684.664856</ele>
        <time>2018-04-30T15:42:30Z</time>
      </trkpt>
      <trkpt lat="45.5385" lon="3.41583">
        <ele>684.422668</ele>
        <time>2018-04-30T15:42:38Z</time>
      </trkpt>
      <trkpt lat="45.53852" lon="3.41612">
        <ele>682.03418</ele>
        <time>2018-04-30T15:42:47Z</time>
      </trkpt>
      <trkpt lat="45.53862" lon="3.41634">
        <ele>684.037354</ele>
        <time>2018-04-30T15:42:54Z</time>
      </trkpt>
      <trkpt lat="45.53862" lon="3.41672">
        <ele>682.625</ele>
        <time>2018-04-30T15:43:05Z</time>
      </trkpt>
      <trkpt lat="45.53853" lon="3.41757">
        <ele>674.876038</ele>
        <time>2018-04-30T15:43:29Z</time>
      </trkpt>
      <trkpt lat="45.53854" lon="3.41786">
        <ele>673.409729</ele>
        <time>2018-04-30T15:43:37Z</time>
      </trkpt>
      <trkpt lat="45.53859" lon="3.41815">
        <ele>673.338501</ele>
        <time>2018-04-30T15:43:45Z</time>
      </trkpt>
      <trkpt lat="45.53869" lon="3.41838">
        <ele>674.804321</ele>
        <time>2018-04-30T15:43:53Z</time>
      </trkpt>
      <trkpt lat="45.5387" lon="3.41864">
        <ele>673.098633</ele>
        <time>2018-04-30T15:44:00Z</time>
      </trkpt>
      <trkpt lat="45.53877" lon="3.41892">
        <ele>673.456238</ele>
        <time>2018-04-30T15:44:08Z</time>
      </trkpt>
      <trkpt lat="45.5389" lon="3.41911">
        <ele>675.273804</ele>
        <time>2018-04-30T15:44:16Z</time>
      </trkpt>
      <trkpt lat="45.53919" lon="3.41935">
        <ele>678.671326</ele>
        <time>2018-04-30T15:44:29Z</time>
      </trkpt>
      <trkpt lat="45.5393" lon="3.41941">
        <ele>680.612732</ele>
        <time>2018-04-30T15:44:34Z</time>
      </trkpt>
      <trkpt lat="45.53959" lon="3.41959">
        <ele>684.354126</ele>
        <time>2018-04-30T15:44:47Z</time>
      </trkpt>
      <trkpt lat="45.53974" lon="3.41975">
        <ele>684.825256</ele>
        <time>2018-04-30T15:44:54Z</time>
      </trkpt>
      <trkpt lat="45.5399" lon="3.41989">
        <ele>687.012268</ele>
        <time>2018-04-30T15:45:02Z</time>
      </trkpt>
      <trkpt lat="45.54002" lon="3.42015">
        <ele>685.79895</ele>
        <time>2018-04-30T15:45:10Z</time>
      </trkpt>
      <trkpt lat="45.54024" lon="3.42048">
        <ele>688.330261</ele>
        <time>2018-04-30T15:45:23Z</time>
      </trkpt>
      <trkpt lat="45.54039" lon="3.42067">
        <ele>691.771851</ele>
        <time>2018-04-30T15:45:31Z</time>
      </trkpt>
      <trkpt lat="45.5406" lon="3.42114">
        <ele>693.707336</ele>
        <time>2018-04-30T15:45:47Z</time>
      </trkpt>
      <trkpt lat="45.54079" lon="3.42145">
        <ele>695.544312</ele>
        <time>2018-04-30T15:45:59Z</time>
      </trkpt>
      <trkpt lat="45.54087" lon="3.42155">
        <ele>696.655518</ele>
        <time>2018-04-30T15:46:03Z</time>
      </trkpt>
      <trkpt lat="45.54104" lon="3.42187">
        <ele>696.684021</ele>
        <time>2018-04-30T15:46:14Z</time>
      </trkpt>
      <trkpt lat="45.54138" lon="3.42209">
        <ele>703.316467</ele>
        <time>2018-04-30T15:46:29Z</time>
      </trkpt>
      <trkpt lat="45.54153" lon="3.42223">
        <ele>705.576721</ele>
        <time>2018-04-30T15:46:36Z</time>
      </trkpt>
      <trkpt lat="45.54166" lon="3.42245">
        <ele>706.476746</ele>
        <time>2018-04-30T15:46:44Z</time>
      </trkpt>
      <trkpt lat="45.54182" lon="3.4226">
        <ele>708.710815</ele>
        <time>2018-04-30T15:46:52Z</time>
      </trkpt>
      <trkpt lat="45.54211" lon="3.42261">
        <ele>713.853516</ele>
        <time>2018-04-30T15:47:03Z</time>
      </trkpt>
      <trkpt lat="45.54226" lon="3.42263">
        <ele>716.116943</ele>
        <time>2018-04-30T15:47:09Z</time>
      </trkpt>
      <trkpt lat="45.54265" lon="3.4228">
        <ele>718.604065</ele>
        <time>2018-04-30T15:47:26Z</time>
      </trkpt>
      <trkpt lat="45.54324" lon="3.42276">
        <ele>726.50885</ele>
        <time>2018-04-30T15:47:49Z</time>
      </trkpt>
      <trkpt lat="45.54344" lon="3.42278">
        <ele>729.295654</ele>
        <time>2018-04-30T15:47:58Z</time>
      </trkpt>
      <trkpt lat="45.54362" lon="3.4229">
        <ele>728.653076</ele>
        <time>2018-04-30T15:48:05Z</time>
      </trkpt>
      <trkpt lat="45.54388" lon="3.42315">
        <ele>729.099609</ele>
        <time>2018-04-30T15:48:18Z</time>
      </trkpt>
      <trkpt lat="45.54406" lon="3.42328">
        <ele>731.020264</ele>
        <time>2018-04-30T15:48:26Z</time>
      </trkpt>
      <trkpt lat="45.54444" lon="3.42346">
        <ele>737.0224</ele>
        <time>2018-04-30T15:48:42Z</time>
      </trkpt>
      <trkpt lat="45.5448" lon="3.42371">
        <ele>739.46875</ele>
        <time>2018-04-30T15:48:58Z</time>
      </trkpt>
      <trkpt lat="45.54519" lon="3.42387">
        <ele>743.19812</ele>
        <time>2018-04-30T15:49:14Z</time>
      </trkpt>
      <trkpt lat="45.54558" lon="3.42394">
        <ele>749.011536</ele>
        <time>2018-04-30T15:49:30Z</time>
      </trkpt>
      <trkpt lat="45.5457" lon="3.42415">
        <ele>751.236877</ele>
        <time>2018-04-30T15:49:37Z</time>
      </trkpt>
      <trkpt lat="45.54571" lon="3.42442">
        <ele>752.044983</ele>
        <time>2018-04-30T15:49:45Z</time>
      </trkpt>
      <trkpt lat="45.54567" lon="3.42468">
        <ele>752.034973</ele>
        <time>2018-04-30T15:49:53Z</time>
      </trkpt>
      <trkpt lat="45.54554" lon="3.42496">
        <ele>749.522156</ele>
        <time>2018-04-30T15:50:02Z</time>
      </trkpt>
      <trkpt lat="45.5455" lon="3.42527">
        <ele>747.864807</ele>
        <time>2018-04-30T15:50:11Z</time>
      </trkpt>
      <trkpt lat="45.54555" lon="3.42565">
        <ele>746.673035</ele>
        <time>2018-04-30T15:50:22Z</time>
      </trkpt>
      <trkpt lat="45.54572" lon="3.42635">
        <ele>743.295654</ele>
        <time>2018-04-30T15:50:42Z</time>
      </trkpt>
      <trkpt lat="45.54571" lon="3.42676">
        <ele>740.999756</ele>
        <time>2018-04-30T15:50:54Z</time>
      </trkpt>
      <trkpt lat="45.54559" lon="3.42692">
        <ele>740.59491</ele>
        <time>2018-04-30T15:51:00Z</time>
      </trkpt>
      <trkpt lat="45.54546" lon="3.42696">
        <ele>740.190247</ele>
        <time>2018-04-30T15:51:06Z</time>
      </trkpt>
      <trkpt lat="45.5452" lon="3.42697">
        <ele>739.270813</ele>
        <time>2018-04-30T15:51:16Z</time>
      </trkpt>
      <trkpt lat="45.54485" lon="3.427">
        <ele>737.879761</ele>
        <time>2018-04-30T15:51:30Z</time>
      </trkpt>
      <trkpt lat="45.54459" lon="3.42699">
        <ele>736.031921</ele>
        <time>2018-04-30T15:51:41Z</time>
      </trkpt>
      <trkpt lat="45.54405" lon="3.42698">
        <ele>732.559326</ele>
        <time>2018-04-30T15:52:02Z</time>
      </trkpt>
      <trkpt lat="45.54391" lon="3.42718">
        <ele>733.731934</ele>
        <time>2018-04-30T15:52:10Z</time>
      </trkpt>
      <trkpt lat="45.54371" lon="3.42734">
        <ele>733.34491</ele>
        <time>2018-04-30T15:52:19Z</time>
      </trkpt>
      <trkpt lat="45.54352" lon="3.42743">
        <ele>732.193787</ele>
        <time>2018-04-30T15:52:27Z</time>
      </trkpt>
      <trkpt lat="45.54338" lon="3.42766">
        <ele>733.741089</ele>
        <time>2018-04-30T15:52:36Z</time>
      </trkpt>
      <trkpt lat="45.54305" lon="3.42766">
        <ele>730.29248</ele>
        <time>2018-04-30T15:52:49Z</time>
      </trkpt>
      <trkpt lat="45.54285" lon="3.42772">
        <ele>727.834961</ele>
        <time>2018-04-30T15:52:57Z</time>
      </trkpt>
      <trkpt lat="45.54264" lon="3.42757">
        <ele>722.07428</ele>
        <time>2018-04-30T15:53:07Z</time>
      </trkpt>
      <trkpt lat="45.54251" lon="3.42759">
        <ele>719.994507</ele>
        <time>2018-04-30T15:53:12Z</time>
      </trkpt>
      <trkpt lat="45.5423" lon="3.4277">
        <ele>718.617004</ele>
        <time>2018-04-30T15:53:21Z</time>
      </trkpt>
      <trkpt lat="45.54193" lon="3.42737">
        <ele>709.57312</ele>
        <time>2018-04-30T15:53:38Z</time>
      </trkpt>
      <trkpt lat="45.54166" lon="3.42727">
        <ele>705.257629</ele>
        <time>2018-04-30T15:53:49Z</time>
      </trkpt>
      <trkpt lat="45.54151" lon="3.42726">
        <ele>703.304688</ele>
        <time>2018-04-30T15:53:55Z</time>
      </trkpt>
      <trkpt lat="45.54112" lon="3.42729">
        <ele>695.284973</ele>
        <time>2018-04-30T15:54:11Z</time>
      </trkpt>
      <trkpt lat="45.54089" lon="3.42734">
        <ele>689.410645</ele>
        <time>2018-04-30T15:54:20Z</time>
      </trkpt>
      <trkpt lat="45.54073" lon="3.42753">
        <ele>687.591309</ele>
        <time>2018-04-30T15:54:29Z</time>
      </trkpt>
      <trkpt lat="45.54066" lon="3.42768">
        <ele>688.662903</ele>
        <time>2018-04-30T15:54:34Z</time>
      </trkpt>
      <trkpt lat="45.54059" lon="3.42794">
        <ele>691.816528</ele>
        <time>2018-04-30T15:54:42Z</time>
      </trkpt>
      <trkpt lat="45.54042" lon="3.42818">
        <ele>689.140015</ele>
        <time>2018-04-30T15:54:51Z</time>
      </trkpt>
      <trkpt lat="45.54031" lon="3.42852">
        <ele>689.934998</ele>
        <time>2018-04-30T15:55:02Z</time>
      </trkpt>
      <trkpt lat="45.54012" lon="3.4289">
        <ele>686.694519</ele>
        <time>2018-04-30T15:55:15Z</time>
      </trkpt>
      <trkpt lat="45.53994" lon="3.4291">
        <ele>682.130188</ele>
        <time>2018-04-30T15:55:24Z</time>
      </trkpt>
      <trkpt lat="45.53969" lon="3.42957">
        <ele>681.523865</ele>
        <time>2018-04-30T15:55:41Z</time>
      </trkpt>
      <trkpt lat="45.53948" lon="3.42976">
        <ele>676.773926</ele>
        <time>2018-04-30T15:55:50Z</time>
      </trkpt>
      <trkpt lat="45.5393" lon="3.42988">
        <ele>669.144653</ele>
        <time>2018-04-30T15:55:58Z</time>
      </trkpt>
      <trkpt lat="45.53933" lon="3.4302">
        <ele>669.838867</ele>
        <time>2018-04-30T15:56:08Z</time>
      </trkpt>
      <trkpt lat="45.53946" lon="3.43042">
        <ele>676.91626</ele>
        <time>2018-04-30T15:56:16Z</time>
      </trkpt>
      <trkpt lat="45.53964" lon="3.43077">
        <ele>684.304871</ele>
        <time>2018-04-30T15:56:28Z</time>
      </trkpt>
      <trkpt lat="45.53984" lon="3.43125">
        <ele>689.453308</ele>
        <time>2018-04-30T15:56:44Z</time>
      </trkpt>
      <trkpt lat="45.53992" lon="3.4315">
        <ele>694.444153</ele>
        <time>2018-04-30T15:56:51Z</time>
      </trkpt>
      <trkpt lat="45.53979" lon="3.43168">
        <ele>696.5578</ele>
        <time>2018-04-30T15:56:58Z</time>
      </trkpt>
      <trkpt lat="45.5396" lon="3.43162">
        <ele>694.740479</ele>
        <time>2018-04-30T15:57:06Z</time>
      </trkpt>
      <trkpt lat="45.53942" lon="3.4317">
        <ele>696.776367</ele>
        <time>2018-04-30T15:57:14Z</time>
      </trkpt>
      <trkpt lat="45.53922" lon="3.43175">
        <ele>698.656006</ele>
        <time>2018-04-30T15:57:22Z</time>
      </trkpt>
      <trkpt lat="45.53885" lon="3.43197">
        <ele>702.614685</ele>
        <time>2018-04-30T15:57:38Z</time>
      </trkpt>
      <trkpt lat="45.53846" lon="3.4321">
        <ele>697.354187</ele>
        <time>2018-04-30T15:57:54Z</time>
      </trkpt>
      <trkpt lat="45.53809" lon="3.43237">
        <ele>689.879822</ele>
        <time>2018-04-30T15:58:10Z</time>
      </trkpt>
      <trkpt lat="45.53798" lon="3.43249">
        <ele>687.38501</ele>
        <time>2018-04-30T15:58:16Z</time>
      </trkpt>
      <trkpt lat="45.53776" lon="3.43306">
        <ele>687.205078</ele>
        <time>2018-04-30T15:58:34Z</time>
      </trkpt>
      <trkpt lat="45.53764" lon="3.43312">
        <ele>684.737488</ele>
        <time>2018-04-30T15:58:39Z</time>
      </trkpt>
      <trkpt lat="45.5375" lon="3.43338">
        <ele>687.002502</ele>
        <time>2018-04-30T15:58:48Z</time>
      </trkpt>
      <trkpt lat="45.53726" lon="3.43352">
        <ele>684.391724</ele>
        <time>2018-04-30T15:58:58Z</time>
      </trkpt>
      <trkpt lat="45.53709" lon="3.43337">
        <ele>680.703491</ele>
        <time>2018-04-30T15:59:06Z</time>
      </trkpt>
      <trkpt lat="45.53695" lon="3.43346">
        <ele>682.352966</ele>
        <time>2018-04-30T15:59:13Z</time>
      </trkpt>
      <trkpt lat="45.53696" lon="3.43413">
        <ele>693.124512</ele>
        <time>2018-04-30T15:59:32Z</time>
      </trkpt>
      <trkpt lat="45.53703" lon="3.43453">
        <ele>700.776001</ele>
        <time>2018-04-30T15:59:43Z</time>
      </trkpt>
      <trkpt lat="45.53708" lon="3.4349">
        <ele>707.634766</ele>
        <time>2018-04-30T15:59:54Z</time>
      </trkpt>
      <trkpt lat="45.53698" lon="3.43541">
        <ele>717.230957</ele>
        <time>2018-04-30T16:00:09Z</time>
      </trkpt>
      <trkpt lat="45.53683" lon="3.43577">
        <ele>723.02002</ele>
        <time>2018-04-30T16:00:21Z</time>
      </trkpt>
      <trkpt lat="45.53688" lon="3.43602">
        <ele>727.219971</ele>
        <time>2018-04-30T16:00:28Z</time>
      </trkpt>
      <trkpt lat="45.53709" lon="3.43628">
        <ele>731.902466</ele>
        <time>2018-04-30T16:00:39Z</time>
      </trkpt>
      <trkpt lat="45.53727" lon="3.43634">
        <ele>733.554993</ele>
        <time>2018-04-30T16:00:47Z</time>
      </trkpt>
      <trkpt lat="45.53746" lon="3.43635">
        <ele>734.842468</ele>
        <time>2018-04-30T16:00:54Z</time>
      </trkpt>
      <trkpt lat="45.53785" lon="3.43641">
        <ele>738.401001</ele>
        <time>2018-04-30T16:01:10Z</time>
      </trkpt>
      <trkpt lat="45.53822" lon="3.43658">
        <ele>744.047302</ele>
        <time>2018-04-30T16:01:26Z</time>
      </trkpt>
      <trkpt lat="45.53838" lon="3.43693">
        <ele>751.612671</ele>
        <time>2018-04-30T16:01:38Z</time>
      </trkpt>
      <trkpt lat="45.53849" lon="3.4371">
        <ele>755.483459</ele>
        <time>2018-04-30T16:01:44Z</time>
      </trkpt>
      <trkpt lat="45.53857" lon="3.43731">
        <ele>759.667114</ele>
        <time>2018-04-30T16:01:51Z</time>
      </trkpt>
      <trkpt lat="45.53835" lon="3.43761">
        <ele>760.210266</ele>
        <time>2018-04-30T16:02:03Z</time>
      </trkpt>
      <trkpt lat="45.53822" lon="3.43782">
        <ele>760.45343</ele>
        <time>2018-04-30T16:02:11Z</time>
      </trkpt>
      <trkpt lat="45.5379" lon="3.43825">
        <ele>760.676086</ele>
        <time>2018-04-30T16:02:29Z</time>
      </trkpt>
      <trkpt lat="45.53776" lon="3.43847">
        <ele>760.917236</ele>
        <time>2018-04-30T16:02:37Z</time>
      </trkpt>
      <trkpt lat="45.5374" lon="3.4392">
        <ele>763.403381</ele>
        <time>2018-04-30T16:03:02Z</time>
      </trkpt>
      <trkpt lat="45.53727" lon="3.43946">
        <ele>764.625305</ele>
        <time>2018-04-30T16:03:11Z</time>
      </trkpt>
      <trkpt lat="45.53712" lon="3.43985">
        <ele>766.047485</ele>
        <time>2018-04-30T16:03:24Z</time>
      </trkpt>
      <trkpt lat="45.53701" lon="3.44028">
        <ele>767.604919</ele>
        <time>2018-04-30T16:03:37Z</time>
      </trkpt>
      <trkpt lat="45.53696" lon="3.44056">
        <ele>768.118835</ele>
        <time>2018-04-30T16:03:44Z</time>
      </trkpt>
      <trkpt lat="45.53695" lon="3.44101">
        <ele>768.921265</ele>
        <time>2018-04-30T16:03:57Z</time>
      </trkpt>
      <trkpt lat="45.53698" lon="3.44159">
        <ele>769.704468</ele>
        <time>2018-04-30T16:04:13Z</time>
      </trkpt>
      <trkpt lat="45.53694" lon="3.44175">
        <ele>769.792114</ele>
        <time>2018-04-30T16:04:18Z</time>
      </trkpt>
      <trkpt lat="45.53685" lon="3.44204">
        <ele>770.085022</ele>
        <time>2018-04-30T16:04:27Z</time>
      </trkpt>
      <trkpt lat="45.53653" lon="3.44318">
        <ele>771.447144</ele>
        <time>2018-04-30T16:05:01Z</time>
      </trkpt>
      <trkpt lat="45.53641" lon="3.44356">
        <ele>772.368713</ele>
        <time>2018-04-30T16:05:13Z</time>
      </trkpt>
      <trkpt lat="45.5363" lon="3.44411">
        <ele>775.325256</ele>
        <time>2018-04-30T16:05:29Z</time>
      </trkpt>
      <trkpt lat="45.53626" lon="3.44457">
        <ele>778.091248</ele>
        <time>2018-04-30T16:05:42Z</time>
      </trkpt>
      <trkpt lat="45.53624" lon="3.44488">
        <ele>778.623779</ele>
        <time>2018-04-30T16:05:50Z</time>
      </trkpt>
      <trkpt lat="45.53621" lon="3.44504">
        <ele>779.008728</ele>
        <time>2018-04-30T16:05:55Z</time>
      </trkpt>
      <trkpt lat="45.53615" lon="3.4453">
        <ele>779.277527</ele>
        <time>2018-04-30T16:06:03Z</time>
      </trkpt>
      <trkpt lat="45.53606" lon="3.44555">
        <ele>779.277527</ele>
        <time>2018-04-30T16:06:11Z</time>
      </trkpt>
      <trkpt lat="45.536" lon="3.44568">
        <ele>779.331238</ele>
        <time>2018-04-30T16:06:15Z</time>
      </trkpt>
      <trkpt lat="45.53586" lon="3.44589">
        <ele>779.59137</ele>
        <time>2018-04-30T16:06:23Z</time>
      </trkpt>
      <trkpt lat="45.53569" lon="3.44607">
        <ele>779.793945</ele>
        <time>2018-04-30T16:06:32Z</time>
      </trkpt>
      <trkpt lat="45.53539" lon="3.44629">
        <ele>780.620117</ele>
        <time>2018-04-30T16:06:45Z</time>
      </trkpt>
      <trkpt lat="45.5352" lon="3.44649">
        <ele>779.937622</ele>
        <time>2018-04-30T16:06:54Z</time>
      </trkpt>
      <trkpt lat="45.535" lon="3.44672">
        <ele>778.610779</ele>
        <time>2018-04-30T16:07:05Z</time>
      </trkpt>
      <trkpt lat="45.53491" lon="3.44685">
        <ele>778.111084</ele>
        <time>2018-04-30T16:07:10Z</time>
      </trkpt>
      <trkpt lat="45.53471" lon="3.44699">
        <ele>777.125061</ele>
        <time>2018-04-30T16:07:19Z</time>
      </trkpt>
      <trkpt lat="45.53429" lon="3.44725">
        <ele>775.859985</ele>
        <time>2018-04-30T16:07:37Z</time>
      </trkpt>
      <trkpt lat="45.53418" lon="3.4473">
        <ele>775.244995</ele>
        <time>2018-04-30T16:07:42Z</time>
      </trkpt>
      <trkpt lat="45.53397" lon="3.44736">
        <ele>773.746704</ele>
        <time>2018-04-30T16:07:50Z</time>
      </trkpt>
      <trkpt lat="45.53379" lon="3.44744">
        <ele>772.473877</ele>
        <time>2018-04-30T16:07:58Z</time>
      </trkpt>
      <trkpt lat="45.53368" lon="3.44756">
        <ele>772.004822</ele>
        <time>2018-04-30T16:08:03Z</time>
      </trkpt>
      <trkpt lat="45.53339" lon="3.44799">
        <ele>770.369995</ele>
        <time>2018-04-30T16:08:20Z</time>
      </trkpt>
      <trkpt lat="45.53333" lon="3.44812">
        <ele>770.132507</ele>
        <time>2018-04-30T16:08:24Z</time>
      </trkpt>
      <trkpt lat="45.53319" lon="3.44849">
        <ele>769.744385</ele>
        <time>2018-04-30T16:08:36Z</time>
      </trkpt>
      <trkpt lat="45.53297" lon="3.44897">
        <ele>769.42627</ele>
        <time>2018-04-30T16:08:52Z</time>
      </trkpt>
      <trkpt lat="45.53271" lon="3.44947">
        <ele>770.10498</ele>
        <time>2018-04-30T16:09:09Z</time>
      </trkpt>
      <trkpt lat="45.53249" lon="3.4496">
        <ele>769.007813</ele>
        <time>2018-04-30T16:09:19Z</time>
      </trkpt>
      <trkpt lat="45.53218" lon="3.44974">
        <ele>766.665894</ele>
        <time>2018-04-30T16:09:32Z</time>
      </trkpt>
      <trkpt lat="45.53187" lon="3.44997">
        <ele>762.660034</ele>
        <time>2018-04-30T16:09:46Z</time>
      </trkpt>
      <trkpt lat="45.53167" lon="3.45025">
        <ele>760.407471</ele>
        <time>2018-04-30T16:09:57Z</time>
      </trkpt>
      <trkpt lat="45.53147" lon="3.45082">
        <ele>758.182495</ele>
        <time>2018-04-30T16:10:15Z</time>
      </trkpt>
      <trkpt lat="45.53135" lon="3.45102">
        <ele>756.607483</ele>
        <time>2018-04-30T16:10:22Z</time>
      </trkpt>
      <trkpt lat="45.53085" lon="3.45164">
        <ele>748.890198</ele>
        <time>2018-04-30T16:10:49Z</time>
      </trkpt>
      <trkpt lat="45.53005" lon="3.45252">
        <ele>743.36261</ele>
        <time>2018-04-30T16:11:29Z</time>
      </trkpt>
      <trkpt lat="45.52991" lon="3.45272">
        <ele>743.200073</ele>
        <time>2018-04-30T16:11:37Z</time>
      </trkpt>
      <trkpt lat="45.52952" lon="3.45319">
        <ele>742.684998</ele>
        <time>2018-04-30T16:11:57Z</time>
      </trkpt>
      <trkpt lat="45.5291" lon="3.45391">
        <ele>743.20697</ele>
        <time>2018-04-30T16:12:23Z</time>
      </trkpt>
      <trkpt lat="45.52899" lon="3.45406">
        <ele>743.512878</ele>
        <time>2018-04-30T16:12:30Z</time>
      </trkpt>
      <trkpt lat="45.52885" lon="3.45412">
        <ele>742.514954</ele>
        <time>2018-04-30T16:12:35Z</time>
      </trkpt>
      <trkpt lat="45.52842" lon="3.45416">
        <ele>737.343384</ele>
        <time>2018-04-30T16:12:53Z</time>
      </trkpt>
      <trkpt lat="45.52792" lon="3.45428">
        <ele>732.524292</ele>
        <time>2018-04-30T16:13:13Z</time>
      </trkpt>
      <trkpt lat="45.52747" lon="3.45445">
        <ele>729.31012</ele>
        <time>2018-04-30T16:13:31Z</time>
      </trkpt>
      <trkpt lat="45.52727" lon="3.45458">
        <ele>729.333496</ele>
        <time>2018-04-30T16:13:40Z</time>
      </trkpt>
      <trkpt lat="45.527" lon="3.45488">
        <ele>724.169861</ele>
        <time>2018-04-30T16:13:54Z</time>
      </trkpt>
      <trkpt lat="45.52692" lon="3.45517">
        <ele>723.172241</ele>
        <time>2018-04-30T16:14:03Z</time>
      </trkpt>
      <trkpt lat="45.52687" lon="3.45547">
        <ele>720.275391</ele>
        <time>2018-04-30T16:14:11Z</time>
      </trkpt>
      <trkpt lat="45.52691" lon="3.45582">
        <ele>720.192871</ele>
        <time>2018-04-30T16:14:22Z</time>
      </trkpt>
      <trkpt lat="45.52665" lon="3.45668">
        <ele>713.630798</ele>
        <time>2018-04-30T16:14:48Z</time>
      </trkpt>
      <trkpt lat="45.52648" lon="3.45694">
        <ele>710.90271</ele>
        <time>2018-04-30T16:14:58Z</time>
      </trkpt>
      <trkpt lat="45.52637" lon="3.45704">
        <ele>709.231506</ele>
        <time>2018-04-30T16:15:03Z</time>
      </trkpt>
      <trkpt lat="45.52619" lon="3.45725">
        <ele>707.228577</ele>
        <time>2018-04-30T16:15:12Z</time>
      </trkpt>
      <trkpt lat="45.52583" lon="3.45765">
        <ele>705.467468</ele>
        <time>2018-04-30T16:15:31Z</time>
      </trkpt>
      <trkpt lat="45.52565" lon="3.4578">
        <ele>705.246399</ele>
        <time>2018-04-30T16:15:39Z</time>
      </trkpt>
      <trkpt lat="45.52545" lon="3.45788">
        <ele>704.521118</ele>
        <time>2018-04-30T16:15:48Z</time>
      </trkpt>
      <trkpt lat="45.52524" lon="3.45791">
        <ele>703.419128</ele>
        <time>2018-04-30T16:15:56Z</time>
      </trkpt>
      <trkpt lat="45.52517" lon="3.458">
        <ele>704.244507</ele>
        <time>2018-04-30T16:16:00Z</time>
      </trkpt>
      <trkpt lat="45.52484" lon="3.4583">
        <ele>706.59375</ele>
        <time>2018-04-30T16:16:16Z</time>
      </trkpt>
      <trkpt lat="45.52456" lon="3.4585">
        <ele>707.628723</ele>
        <time>2018-04-30T16:16:28Z</time>
      </trkpt>
      <trkpt lat="45.52423" lon="3.45871">
        <ele>707.194885</ele>
        <time>2018-04-30T16:16:43Z</time>
      </trkpt>
      <trkpt lat="45.52368" lon="3.45913">
        <ele>705.835022</ele>
        <time>2018-04-30T16:17:07Z</time>
      </trkpt>
      <trkpt lat="45.52322" lon="3.45942">
        <ele>707.239868</ele>
        <time>2018-04-30T16:17:27Z</time>
      </trkpt>
      <trkpt lat="45.52305" lon="3.45951">
        <ele>708.011414</ele>
        <time>2018-04-30T16:17:35Z</time>
      </trkpt>
      <trkpt lat="45.5228" lon="3.45961">
        <ele>709.480774</ele>
        <time>2018-04-30T16:17:45Z</time>
      </trkpt>
      <trkpt lat="45.52239" lon="3.4597">
        <ele>711.719666</ele>
        <time>2018-04-30T16:18:02Z</time>
      </trkpt>
      <trkpt lat="45.52227" lon="3.45976">
        <ele>712.466492</ele>
        <time>2018-04-30T16:18:07Z</time>
      </trkpt>
      <trkpt lat="45.5221" lon="3.45987">
        <ele>713.344238</ele>
        <time>2018-04-30T16:18:14Z</time>
      </trkpt>
      <trkpt lat="45.52164" lon="3.46022">
        <ele>713.843689</ele>
        <time>2018-04-30T16:18:35Z</time>
      </trkpt>
      <trkpt lat="45.52132" lon="3.4605">
        <ele>714.583435</ele>
        <time>2018-04-30T16:18:50Z</time>
      </trkpt>
      <trkpt lat="45.52115" lon="3.46064">
        <ele>714.456116</ele>
        <time>2018-04-30T16:18:58Z</time>
      </trkpt>
      <trkpt lat="45.52075" lon="3.46092">
        <ele>713.409119</ele>
        <time>2018-04-30T16:19:15Z</time>
      </trkpt>
      <trkpt lat="45.52056" lon="3.46096">
        <ele>713.576294</ele>
        <time>2018-04-30T16:19:23Z</time>
      </trkpt>
      <trkpt lat="45.52035" lon="3.46098">
        <ele>713.406189</ele>
        <time>2018-04-30T16:19:32Z</time>
      </trkpt>
      <trkpt lat="45.51995" lon="3.46106">
        <ele>713.970276</ele>
        <time>2018-04-30T16:19:48Z</time>
      </trkpt>
      <trkpt lat="45.51973" lon="3.46116">
        <ele>714.195496</ele>
        <time>2018-04-30T16:19:57Z</time>
      </trkpt>
      <trkpt lat="45.51936" lon="3.46142">
        <ele>714.097107</ele>
        <time>2018-04-30T16:20:13Z</time>
      </trkpt>
      <trkpt lat="45.5192" lon="3.46157">
        <ele>714.072571</ele>
        <time>2018-04-30T16:20:21Z</time>
      </trkpt>
      <trkpt lat="45.51895" lon="3.46183">
        <ele>714.088135</ele>
        <time>2018-04-30T16:20:33Z</time>
      </trkpt>
      <trkpt lat="45.51884" lon="3.46184">
        <ele>714.29071</ele>
        <time>2018-04-30T16:20:38Z</time>
      </trkpt>
      <trkpt lat="45.51865" lon="3.46177">
        <ele>714.783875</ele>
        <time>2018-04-30T16:20:46Z</time>
      </trkpt>
      <trkpt lat="45.51841" lon="3.46173">
        <ele>715.419983</ele>
        <time>2018-04-30T16:20:55Z</time>
      </trkpt>
      <trkpt lat="45.51818" lon="3.46182">
        <ele>715.667542</ele>
        <time>2018-04-30T16:21:05Z</time>
      </trkpt>
      <trkpt lat="45.51767" lon="3.46215">
        <ele>716.304565</ele>
        <time>2018-04-30T16:21:27Z</time>
      </trkpt>
      <trkpt lat="45.51745" lon="3.46223">
        <ele>716.225281</ele>
        <time>2018-04-30T16:21:36Z</time>
      </trkpt>
      <trkpt lat="45.51725" lon="3.46224">
        <ele>715.692383</ele>
        <time>2018-04-30T16:21:44Z</time>
      </trkpt>
      <trkpt lat="45.51684" lon="3.4621">
        <ele>716.560974</ele>
        <time>2018-04-30T16:22:01Z</time>
      </trkpt>
      <trkpt lat="45.51663" lon="3.46215">
        <ele>717.704346</ele>
        <time>2018-04-30T16:22:09Z</time>
      </trkpt>
      <trkpt lat="45.51628" lon="3.46243">
        <ele>718.090027</ele>
        <time>2018-04-30T16:22:25Z</time>
      </trkpt>
      <trkpt lat="45.51598" lon="3.46277">
        <ele>717.358521</ele>
        <time>2018-04-30T16:22:41Z</time>
      </trkpt>
      <trkpt lat="45.51582" lon="3.4629">
        <ele>717.779297</ele>
        <time>2018-04-30T16:22:48Z</time>
      </trkpt>
      <trkpt lat="45.5156" lon="3.46301">
        <ele>718.706909</ele>
        <time>2018-04-30T16:22:57Z</time>
      </trkpt>
      <trkpt lat="45.5154" lon="3.46303">
        <ele>719.504761</ele>
        <time>2018-04-30T16:23:05Z</time>
      </trkpt>
      <trkpt lat="45.51522" lon="3.4631">
        <ele>719.94574</ele>
        <time>2018-04-30T16:23:13Z</time>
      </trkpt>
      <trkpt lat="45.51505" lon="3.46326">
        <ele>719.527466</ele>
        <time>2018-04-30T16:23:21Z</time>
      </trkpt>
      <trkpt lat="45.51489" lon="3.46348">
        <ele>719.75177</ele>
        <time>2018-04-30T16:23:30Z</time>
      </trkpt>
      <trkpt lat="45.51461" lon="3.4636">
        <ele>720.858215</ele>
        <time>2018-04-30T16:23:41Z</time>
      </trkpt>
      <trkpt lat="45.51413" lon="3.46371">
        <ele>721.97583</ele>
        <time>2018-04-30T16:24:01Z</time>
      </trkpt>
      <trkpt lat="45.51392" lon="3.46369">
        <ele>723.106567</ele>
        <time>2018-04-30T16:24:09Z</time>
      </trkpt>
      <trkpt lat="45.51353" lon="3.4637">
        <ele>724.567566</ele>
        <time>2018-04-30T16:24:25Z</time>
      </trkpt>
      <trkpt lat="45.51325" lon="3.46373">
        <ele>724.649597</ele>
        <time>2018-04-30T16:24:36Z</time>
      </trkpt>
      <trkpt lat="45.51286" lon="3.4638">
        <ele>724.456665</ele>
        <time>2018-04-30T16:24:52Z</time>
      </trkpt>
      <trkpt lat="45.51195" lon="3.46392">
        <ele>724.574463</ele>
        <time>2018-04-30T16:25:28Z</time>
      </trkpt>
      <trkpt lat="45.51175" lon="3.46397">
        <ele>724.401245</ele>
        <time>2018-04-30T16:25:36Z</time>
      </trkpt>
      <trkpt lat="45.51156" lon="3.46398">
        <ele>724.585022</ele>
        <time>2018-04-30T16:25:44Z</time>
      </trkpt>
      <trkpt lat="45.51145" lon="3.46396">
        <ele>725.137512</ele>
        <time>2018-04-30T16:25:48Z</time>
      </trkpt>
      <trkpt lat="45.51126" lon="3.46383">
        <ele>727.657471</ele>
        <time>2018-04-30T16:25:57Z</time>
      </trkpt>
      <trkpt lat="45.51113" lon="3.46381">
        <ele>727.845032</ele>
        <time>2018-04-30T16:26:02Z</time>
      </trkpt>
      <trkpt lat="45.51071" lon="3.46381">
        <ele>727.171326</ele>
        <time>2018-04-30T16:26:19Z</time>
      </trkpt>
      <trkpt lat="45.51029" lon="3.46388">
        <ele>726.245972</ele>
        <time>2018-04-30T16:26:35Z</time>
      </trkpt>
      <trkpt lat="45.51009" lon="3.4639">
        <ele>727.191833</ele>
        <time>2018-04-30T16:26:43Z</time>
      </trkpt>
      <trkpt lat="45.50999" lon="3.46388">
        <ele>728.096741</ele>
        <time>2018-04-30T16:26:48Z</time>
      </trkpt>
      <trkpt lat="45.5098" lon="3.46373">
        <ele>731.83197</ele>
        <time>2018-04-30T16:26:56Z</time>
      </trkpt>
      <trkpt lat="45.50961" lon="3.46344">
        <ele>739.015747</ele>
        <time>2018-04-30T16:27:07Z</time>
      </trkpt>
      <trkpt lat="45.50941" lon="3.46348">
        <ele>740.127136</ele>
        <time>2018-04-30T16:27:15Z</time>
      </trkpt>
      <trkpt lat="45.50917" lon="3.46371">
        <ele>737.627014</ele>
        <time>2018-04-30T16:27:27Z</time>
      </trkpt>
      <trkpt lat="45.50877" lon="3.46395">
        <ele>738.280945</ele>
        <time>2018-04-30T16:27:44Z</time>
      </trkpt>
      <trkpt lat="45.50827" lon="3.46415">
        <ele>741.40564</ele>
        <time>2018-04-30T16:28:05Z</time>
      </trkpt>
      <trkpt lat="45.50818" lon="3.46417">
        <ele>742.231201</ele>
        <time>2018-04-30T16:28:09Z</time>
      </trkpt>
      <trkpt lat="45.50786" lon="3.46419">
        <ele>744.551392</ele>
        <time>2018-04-30T16:28:21Z</time>
      </trkpt>
      <trkpt lat="45.50767" lon="3.46417">
        <ele>746.327332</ele>
        <time>2018-04-30T16:28:29Z</time>
      </trkpt>
      <trkpt lat="45.50747" lon="3.46408">
        <ele>749.065735</ele>
        <time>2018-04-30T16:28:37Z</time>
      </trkpt>
      <trkpt lat="45.50707" lon="3.46385">
        <ele>753.983704</ele>
        <time>2018-04-30T16:28:54Z</time>
      </trkpt>
      <trkpt lat="45.50694" lon="3.46384">
        <ele>754.920349</ele>
        <time>2018-04-30T16:29:00Z</time>
      </trkpt>
      <trkpt lat="45.50674" lon="3.46392">
        <ele>756.321899</ele>
        <time>2018-04-30T16:29:08Z</time>
      </trkpt>
      <trkpt lat="45.50658" lon="3.46411">
        <ele>757.414673</ele>
        <time>2018-04-30T16:29:16Z</time>
      </trkpt>
      <trkpt lat="45.5066" lon="3.46438">
        <ele>756.186951</ele>
        <time>2018-04-30T16:29:24Z</time>
      </trkpt>
      <trkpt lat="45.50664" lon="3.46466">
        <ele>754.452942</ele>
        <time>2018-04-30T16:29:32Z</time>
      </trkpt>
      <trkpt lat="45.50657" lon="3.46506">
        <ele>753.69751</ele>
        <time>2018-04-30T16:29:43Z</time>
      </trkpt>
      <trkpt lat="45.50629" lon="3.46546">
        <ele>754.221313</ele>
        <time>2018-04-30T16:29:59Z</time>
      </trkpt>
      <trkpt lat="45.50613" lon="3.46599">
        <ele>750.582581</ele>
        <time>2018-04-30T16:30:15Z</time>
      </trkpt>
      <trkpt lat="45.50597" lon="3.46615">
        <ele>750.518127</ele>
        <time>2018-04-30T16:30:23Z</time>
      </trkpt>
      <trkpt lat="45.5057" lon="3.46644">
        <ele>747.557617</ele>
        <time>2018-04-30T16:30:37Z</time>
      </trkpt>
      <trkpt lat="45.50548" lon="3.46666">
        <ele>743.945129</ele>
        <time>2018-04-30T16:30:47Z</time>
      </trkpt>
      <trkpt lat="45.50525" lon="3.46684">
        <ele>741.740906</ele>
        <time>2018-04-30T16:30:58Z</time>
      </trkpt>
      <trkpt lat="45.50529" lon="3.467">
        <ele>739.703674</ele>
        <time>2018-04-30T16:31:03Z</time>
      </trkpt>
      <trkpt lat="45.50547" lon="3.46709">
        <ele>739.323547</ele>
        <time>2018-04-30T16:31:11Z</time>
      </trkpt>
      <trkpt lat="45.50551" lon="3.46735">
        <ele>739.833374</ele>
        <time>2018-04-30T16:31:18Z</time>
      </trkpt>
      <trkpt lat="45.50546" lon="3.46761">
        <ele>740.071228</ele>
        <time>2018-04-30T16:31:26Z</time>
      </trkpt>
      <trkpt lat="45.50536" lon="3.46786">
        <ele>740.252502</ele>
        <time>2018-04-30T16:31:34Z</time>
      </trkpt>
      <trkpt lat="45.50516" lon="3.46801">
        <ele>740.04248</ele>
        <time>2018-04-30T16:31:43Z</time>
      </trkpt>
      <trkpt lat="45.50499" lon="3.46818">
        <ele>739.95874</ele>
        <time>2018-04-30T16:31:51Z</time>
      </trkpt>
      <trkpt lat="45.50448" lon="3.46865">
        <ele>740.909363</ele>
        <time>2018-04-30T16:32:16Z</time>
      </trkpt>
      <trkpt lat="45.50427" lon="3.46892">
        <ele>741.414612</ele>
        <time>2018-04-30T16:32:27Z</time>
      </trkpt>
      <trkpt lat="45.50418" lon="3.46916">
        <ele>742.585938</ele>
        <time>2018-04-30T16:32:35Z</time>
      </trkpt>
      <trkpt lat="45.504" lon="3.4694">
        <ele>743.21936</ele>
        <time>2018-04-30T16:32:44Z</time>
      </trkpt>
      <trkpt lat="45.50362" lon="3.46947">
        <ele>742.027527</ele>
        <time>2018-04-30T16:33:00Z</time>
      </trkpt>
      <trkpt lat="45.50339" lon="3.46958">
        <ele>742.40625</ele>
        <time>2018-04-30T16:33:09Z</time>
      </trkpt>
      <trkpt lat="45.50304" lon="3.46991">
        <ele>744.119629</ele>
        <time>2018-04-30T16:33:26Z</time>
      </trkpt>
      <trkpt lat="45.50287" lon="3.47011">
        <ele>744.820007</ele>
        <time>2018-04-30T16:33:35Z</time>
      </trkpt>
      <trkpt lat="45.50269" lon="3.47018">
        <ele>744.954529</ele>
        <time>2018-04-30T16:33:42Z</time>
      </trkpt>
      <trkpt lat="45.50171" lon="3.46985">
        <ele>750.6875</ele>
        <time>2018-04-30T16:34:23Z</time>
      </trkpt>
      <trkpt lat="45.50149" lon="3.4698">
        <ele>752.594971</ele>
        <time>2018-04-30T16:34:32Z</time>
      </trkpt>
      <trkpt lat="45.5013" lon="3.4698">
        <ele>753.92749</ele>
        <time>2018-04-30T16:34:39Z</time>
      </trkpt>
      <trkpt lat="45.50099" lon="3.46992">
        <ele>755.481262</ele>
        <time>2018-04-30T16:34:52Z</time>
      </trkpt>
      <trkpt lat="45.5008" lon="3.46997">
        <ele>756.586304</ele>
        <time>2018-04-30T16:34:59Z</time>
      </trkpt>
      <trkpt lat="45.50038" lon="3.46998">
        <ele>758.762451</ele>
        <time>2018-04-30T16:35:16Z</time>
      </trkpt>
      <trkpt lat="45.50017" lon="3.46994">
        <ele>758.878845</ele>
        <time>2018-04-30T16:35:25Z</time>
      </trkpt>
      <trkpt lat="45.49975" lon="3.4698">
        <ele>757.862488</ele>
        <time>2018-04-30T16:35:42Z</time>
      </trkpt>
      <trkpt lat="45.49965" lon="3.46977">
        <ele>757.64502</ele>
        <time>2018-04-30T16:35:46Z</time>
      </trkpt>
      <trkpt lat="45.49923" lon="3.46979">
        <ele>757.683167</ele>
        <time>2018-04-30T16:36:03Z</time>
      </trkpt>
      <trkpt lat="45.49904" lon="3.46984">
        <ele>757.784973</ele>
        <time>2018-04-30T16:36:10Z</time>
      </trkpt>
      <trkpt lat="45.49883" lon="3.46994">
        <ele>757.970642</ele>
        <time>2018-04-30T16:36:19Z</time>
      </trkpt>
      <trkpt lat="45.4985" lon="3.47003">
        <ele>758.299194</ele>
        <time>2018-04-30T16:36:33Z</time>
      </trkpt>
      <trkpt lat="45.49834" lon="3.46987">
        <ele>757.70459</ele>
        <time>2018-04-30T16:36:41Z</time>
      </trkpt>
      <trkpt lat="45.49827" lon="3.4696">
        <ele>757.248535</ele>
        <time>2018-04-30T16:36:49Z</time>
      </trkpt>
      <trkpt lat="45.49838" lon="3.46936">
        <ele>756.376648</ele>
        <time>2018-04-30T16:36:57Z</time>
      </trkpt>
      <trkpt lat="45.49853" lon="3.46916">
        <ele>758.081421</ele>
        <time>2018-04-30T16:37:05Z</time>
      </trkpt>
      <trkpt lat="45.49872" lon="3.46901">
        <ele>759.406921</ele>
        <time>2018-04-30T16:37:13Z</time>
      </trkpt>
      <trkpt lat="45.4991" lon="3.46881">
        <ele>761.226013</ele>
        <time>2018-04-30T16:37:30Z</time>
      </trkpt>
      <trkpt lat="45.49932" lon="3.46854">
        <ele>764.73645</ele>
        <time>2018-04-30T16:37:42Z</time>
      </trkpt>
      <trkpt lat="45.49952" lon="3.46809">
        <ele>770.283752</ele>
        <time>2018-04-30T16:37:57Z</time>
      </trkpt>
      <trkpt lat="45.4997" lon="3.46776">
        <ele>773.608765</ele>
        <time>2018-04-30T16:38:08Z</time>
      </trkpt>
      <trkpt lat="45.49985" lon="3.46755">
        <ele>775.570007</ele>
        <time>2018-04-30T16:38:17Z</time>
      </trkpt>
      <trkpt lat="45.49994" lon="3.46732">
        <ele>777.929993</ele>
        <time>2018-04-30T16:38:24Z</time>
      </trkpt>
      <trkpt lat="45.5" lon="3.46705">
        <ele>780.778748</ele>
        <time>2018-04-30T16:38:32Z</time>
      </trkpt>
      <trkpt lat="45.50011" lon="3.46666">
        <ele>784.347595</ele>
        <time>2018-04-30T16:38:44Z</time>
      </trkpt>
      <trkpt lat="45.49995" lon="3.46629">
        <ele>788.48938</ele>
        <time>2018-04-30T16:38:56Z</time>
      </trkpt>
      <trkpt lat="45.49984" lon="3.46607">
        <ele>791.061523</ele>
        <time>2018-04-30T16:39:04Z</time>
      </trkpt>
      <trkpt lat="45.49998" lon="3.46566">
        <ele>793.760315</ele>
        <time>2018-04-30T16:39:17Z</time>
      </trkpt>
      <trkpt lat="45.5001" lon="3.46543">
        <ele>794.823975</ele>
        <time>2018-04-30T16:39:25Z</time>
      </trkpt>
      <trkpt lat="45.50033" lon="3.46537">
        <ele>794.401123</ele>
        <time>2018-04-30T16:39:34Z</time>
      </trkpt>
      <trkpt lat="45.50069" lon="3.46511">
        <ele>796.442444</ele>
        <time>2018-04-30T16:39:50Z</time>
      </trkpt>
      <trkpt lat="45.5009" lon="3.46484">
        <ele>798.73645</ele>
        <time>2018-04-30T16:40:01Z</time>
      </trkpt>
      <trkpt lat="45.50111" lon="3.46455">
        <ele>801.213501</ele>
        <time>2018-04-30T16:40:13Z</time>
      </trkpt>
      <trkpt lat="45.50135" lon="3.4641">
        <ele>804.362488</ele>
        <time>2018-04-30T16:40:29Z</time>
      </trkpt>
      <trkpt lat="45.5014" lon="3.46399">
        <ele>805.232483</ele>
        <time>2018-04-30T16:40:33Z</time>
      </trkpt>
      <trkpt lat="45.50149" lon="3.46365">
        <ele>809.047485</ele>
        <time>2018-04-30T16:40:43Z</time>
      </trkpt>
      <trkpt lat="45.50129" lon="3.46361">
        <ele>811.526855</ele>
        <time>2018-04-30T16:40:51Z</time>
      </trkpt>
      <trkpt lat="45.50092" lon="3.46344">
        <ele>817.679993</ele>
        <time>2018-04-30T16:41:06Z</time>
      </trkpt>
      <trkpt lat="45.50067" lon="3.46329">
        <ele>821.034973</ele>
        <time>2018-04-30T16:41:17Z</time>
      </trkpt>
      <trkpt lat="45.50042" lon="3.46309">
        <ele>825.004272</ele>
        <time>2018-04-30T16:41:29Z</time>
      </trkpt>
      <trkpt lat="45.50033" lon="3.463">
        <ele>826.529907</ele>
        <time>2018-04-30T16:41:33Z</time>
      </trkpt>
      <trkpt lat="45.50015" lon="3.46286">
        <ele>828.710449</ele>
        <time>2018-04-30T16:41:42Z</time>
      </trkpt>
      <trkpt lat="45.50001" lon="3.46268">
        <ele>831.076721</ele>
        <time>2018-04-30T16:41:49Z</time>
      </trkpt>
      <trkpt lat="45.49991" lon="3.46244">
        <ele>833.977051</ele>
        <time>2018-04-30T16:41:57Z</time>
      </trkpt>
      <trkpt lat="45.49978" lon="3.46223">
        <ele>835.809753</ele>
        <time>2018-04-30T16:42:05Z</time>
      </trkpt>
      <trkpt lat="45.4995" lon="3.46184">
        <ele>838.494995</ele>
        <time>2018-04-30T16:42:21Z</time>
      </trkpt>
      <trkpt lat="45.49936" lon="3.46166">
        <ele>839.779968</ele>
        <time>2018-04-30T16:42:28Z</time>
      </trkpt>
      <trkpt lat="45.49919" lon="3.4615">
        <ele>840.716675</ele>
        <time>2018-04-30T16:42:36Z</time>
      </trkpt>
      <trkpt lat="45.49903" lon="3.46127">
        <ele>841.992004</ele>
        <time>2018-04-30T16:42:45Z</time>
      </trkpt>
      <trkpt lat="45.49892" lon="3.46102">
        <ele>842.525452</ele>
        <time>2018-04-30T16:42:54Z</time>
      </trkpt>
      <trkpt lat="45.49888" lon="3.46089">
        <ele>842.173462</ele>
        <time>2018-04-30T16:42:58Z</time>
      </trkpt>
      <trkpt lat="45.49866" lon="3.46032">
        <ele>841.197205</ele>
        <time>2018-04-30T16:43:16Z</time>
      </trkpt>
      <trkpt lat="45.49856" lon="3.46003">
        <ele>840.494629</ele>
        <time>2018-04-30T16:43:25Z</time>
      </trkpt>
      <trkpt lat="45.49838" lon="3.45956">
        <ele>838.294983</ele>
        <time>2018-04-30T16:43:40Z</time>
      </trkpt>
      <trkpt lat="45.49816" lon="3.45913">
        <ele>835.431152</ele>
        <time>2018-04-30T16:43:55Z</time>
      </trkpt>
      <trkpt lat="45.49783" lon="3.45861">
        <ele>832.969727</ele>
        <time>2018-04-30T16:44:14Z</time>
      </trkpt>
      <trkpt lat="45.49774" lon="3.45849">
        <ele>832.428223</ele>
        <time>2018-04-30T16:44:19Z</time>
      </trkpt>
      <trkpt lat="45.49754" lon="3.45829">
        <ele>832.217529</ele>
        <time>2018-04-30T16:44:29Z</time>
      </trkpt>
      <trkpt lat="45.49706" lon="3.45797">
        <ele>832.337463</ele>
        <time>2018-04-30T16:44:50Z</time>
      </trkpt>
      <trkpt lat="45.49669" lon="3.45771">
        <ele>831.844971</ele>
        <time>2018-04-30T16:45:07Z</time>
      </trkpt>
      <trkpt lat="45.49633" lon="3.45734">
        <ele>830.927124</ele>
        <time>2018-04-30T16:45:24Z</time>
      </trkpt>
      <trkpt lat="45.49606" lon="3.45704">
        <ele>829.450439</ele>
        <time>2018-04-30T16:45:38Z</time>
      </trkpt>
      <trkpt lat="45.49566" lon="3.45667">
        <ele>827.253113</ele>
        <time>2018-04-30T16:45:57Z</time>
      </trkpt>
      <trkpt lat="45.49527" lon="3.45626">
        <ele>826.083191</ele>
        <time>2018-04-30T16:46:16Z</time>
      </trkpt>
      <trkpt lat="45.49493" lon="3.45588">
        <ele>825.324341</ele>
        <time>2018-04-30T16:46:33Z</time>
      </trkpt>
      <trkpt lat="45.49479" lon="3.4557">
        <ele>824.803711</ele>
        <time>2018-04-30T16:46:41Z</time>
      </trkpt>
      <trkpt lat="45.49467" lon="3.4555">
        <ele>824.015686</ele>
        <time>2018-04-30T16:46:49Z</time>
      </trkpt>
      <trkpt lat="45.49444" lon="3.45507">
        <ele>822.976563</ele>
        <time>2018-04-30T16:47:04Z</time>
      </trkpt>
      <trkpt lat="45.49428" lon="3.45485">
        <ele>822.348328</ele>
        <time>2018-04-30T16:47:12Z</time>
      </trkpt>
      <trkpt lat="45.49412" lon="3.45458">
        <ele>822.002319</ele>
        <time>2018-04-30T16:47:22Z</time>
      </trkpt>
      <trkpt lat="45.49396" lon="3.45422">
        <ele>820.756104</ele>
        <time>2018-04-30T16:47:34Z</time>
      </trkpt>
      <trkpt lat="45.49386" lon="3.45397">
        <ele>820.214294</ele>
        <time>2018-04-30T16:47:42Z</time>
      </trkpt>
      <trkpt lat="45.49332" lon="3.45289">
        <ele>816.985474</ele>
        <time>2018-04-30T16:48:19Z</time>
      </trkpt>
      <trkpt lat="45.49288" lon="3.45191">
        <ele>810.855957</ele>
        <time>2018-04-30T16:48:52Z</time>
      </trkpt>
      <trkpt lat="45.49282" lon="3.45175">
        <ele>810.165833</ele>
        <time>2018-04-30T16:48:57Z</time>
      </trkpt>
      <trkpt lat="45.49267" lon="3.45124">
        <ele>808.109985</ele>
        <time>2018-04-30T16:49:12Z</time>
      </trkpt>
      <trkpt lat="45.49245" lon="3.4504">
        <ele>804.631226</ele>
        <time>2018-04-30T16:49:38Z</time>
      </trkpt>
      <trkpt lat="45.49228" lon="3.4498">
        <ele>801.600037</ele>
        <time>2018-04-30T16:49:56Z</time>
      </trkpt>
      <trkpt lat="45.49196" lon="3.44865">
        <ele>794.19458</ele>
        <time>2018-04-30T16:50:30Z</time>
      </trkpt>
      <trkpt lat="45.49178" lon="3.44779">
        <ele>789.123169</ele>
        <time>2018-04-30T16:50:55Z</time>
      </trkpt>
      <trkpt lat="45.49166" lon="3.447">
        <ele>785.845093</ele>
        <time>2018-04-30T16:51:18Z</time>
      </trkpt>
      <trkpt lat="45.4916" lon="3.44682">
        <ele>785.096436</ele>
        <time>2018-04-30T16:51:24Z</time>
      </trkpt>
      <trkpt lat="45.49141" lon="3.44629">
        <ele>782.563599</ele>
        <time>2018-04-30T16:51:40Z</time>
      </trkpt>
      <trkpt lat="45.49117" lon="3.4457">
        <ele>777.778015</ele>
        <time>2018-04-30T16:52:00Z</time>
      </trkpt>
      <trkpt lat="45.49086" lon="3.44488">
        <ele>768.672485</ele>
        <time>2018-04-30T16:52:25Z</time>
      </trkpt>
      <trkpt lat="45.49067" lon="3.44447">
        <ele>764.915894</ele>
        <time>2018-04-30T16:52:39Z</time>
      </trkpt>
      <trkpt lat="45.49053" lon="3.44429">
        <ele>763.293701</ele>
        <time>2018-04-30T16:52:47Z</time>
      </trkpt>
      <trkpt lat="45.49039" lon="3.44419">
        <ele>762.692505</ele>
        <time>2018-04-30T16:52:53Z</time>
      </trkpt>
      <trkpt lat="45.49024" lon="3.44416">
        <ele>761.95874</ele>
        <time>2018-04-30T16:52:59Z</time>
      </trkpt>
      <trkpt lat="45.49009" lon="3.44416">
        <ele>761.293762</ele>
        <time>2018-04-30T16:53:05Z</time>
      </trkpt>
      <trkpt lat="45.48994" lon="3.44422">
        <ele>760.908752</ele>
        <time>2018-04-30T16:53:12Z</time>
      </trkpt>
      <trkpt lat="45.48968" lon="3.44438">
        <ele>759.758484</ele>
        <time>2018-04-30T16:53:23Z</time>
      </trkpt>
      <trkpt lat="45.48906" lon="3.44455">
        <ele>757.577515</ele>
        <time>2018-04-30T16:53:48Z</time>
      </trkpt>
      <trkpt lat="45.48883" lon="3.44467">
        <ele>758.271301</ele>
        <time>2018-04-30T16:53:58Z</time>
      </trkpt>
      <trkpt lat="45.48862" lon="3.44461">
        <ele>758.882813</ele>
        <time>2018-04-30T16:54:06Z</time>
      </trkpt>
      <trkpt lat="45.48836" lon="3.44434">
        <ele>760.900635</ele>
        <time>2018-04-30T16:54:19Z</time>
      </trkpt>
      <trkpt lat="45.48828" lon="3.44424">
        <ele>761.619385</ele>
        <time>2018-04-30T16:54:23Z</time>
      </trkpt>
      <trkpt lat="45.48801" lon="3.44368">
        <ele>765.797791</ele>
        <time>2018-04-30T16:54:42Z</time>
      </trkpt>
      <trkpt lat="45.4879" lon="3.44328">
        <ele>767.796936</ele>
        <time>2018-04-30T16:54:54Z</time>
      </trkpt>
      <trkpt lat="45.48773" lon="3.44297">
        <ele>769.677673</ele>
        <time>2018-04-30T16:55:06Z</time>
      </trkpt>
      <trkpt lat="45.48758" lon="3.44281">
        <ele>771.290955</ele>
        <time>2018-04-30T16:55:13Z</time>
      </trkpt>
      <trkpt lat="45.48725" lon="3.44255">
        <ele>774.532959</ele>
        <time>2018-04-30T16:55:28Z</time>
      </trkpt>
      <trkpt lat="45.48711" lon="3.44237">
        <ele>776.429993</ele>
        <time>2018-04-30T16:55:36Z</time>
      </trkpt>
      <trkpt lat="45.48699" lon="3.44214">
        <ele>778.284241</ele>
        <time>2018-04-30T16:55:44Z</time>
      </trkpt>
      <trkpt lat="45.48694" lon="3.44201">
        <ele>779.143982</ele>
        <time>2018-04-30T16:55:48Z</time>
      </trkpt>
      <trkpt lat="45.48683" lon="3.44162">
        <ele>780.830872</ele>
        <time>2018-04-30T16:56:00Z</time>
      </trkpt>
      <trkpt lat="45.48661" lon="3.44119">
        <ele>784.795532</ele>
        <time>2018-04-30T16:56:15Z</time>
      </trkpt>
      <trkpt lat="45.48667" lon="3.44104">
        <ele>784.765198</ele>
        <time>2018-04-30T16:56:20Z</time>
      </trkpt>
      <trkpt lat="45.48689" lon="3.44108">
        <ele>783.039978</ele>
        <time>2018-04-30T16:56:28Z</time>
      </trkpt>
      <trkpt lat="45.48807" lon="3.44089">
        <ele>776.972473</ele>
        <time>2018-04-30T16:57:16Z</time>
      </trkpt>
      <trkpt lat="45.48902" lon="3.4409">
        <ele>771.30011</ele>
        <time>2018-04-30T16:57:54Z</time>
      </trkpt>
      <trkpt lat="45.48953" lon="3.44085">
        <ele>768.057312</ele>
        <time>2018-04-30T16:58:14Z</time>
      </trkpt>
      <trkpt lat="45.48993" lon="3.44091">
        <ele>763.354492</ele>
        <time>2018-04-30T16:58:30Z</time>
      </trkpt>
      <trkpt lat="45.49035" lon="3.44094">
        <ele>759.882141</ele>
        <time>2018-04-30T16:58:47Z</time>
      </trkpt>
      <trkpt lat="45.49077" lon="3.44092">
        <ele>755.11261</ele>
        <time>2018-04-30T16:59:04Z</time>
      </trkpt>
      <trkpt lat="45.49121" lon="3.441">
        <ele>750.672485</ele>
        <time>2018-04-30T16:59:22Z</time>
      </trkpt>
      <trkpt lat="45.49162" lon="3.4411">
        <ele>749.474182</ele>
        <time>2018-04-30T16:59:38Z</time>
      </trkpt>
      <trkpt lat="45.49187" lon="3.4411">
        <ele>750.309998</ele>
        <time>2018-04-30T16:59:48Z</time>
      </trkpt>
      <trkpt lat="45.49203" lon="3.44093">
        <ele>751.224976</ele>
        <time>2018-04-30T16:59:56Z</time>
      </trkpt>
      <trkpt lat="45.49217" lon="3.44069">
        <ele>751.65625</ele>
        <time>2018-04-30T17:00:05Z</time>
      </trkpt>
      <trkpt lat="45.49256" lon="3.43983">
        <ele>751.807495</ele>
        <time>2018-04-30T17:00:34Z</time>
      </trkpt>
      <trkpt lat="45.49284" lon="3.43927">
        <ele>751.820007</ele>
        <time>2018-04-30T17:00:53Z</time>
      </trkpt>
      <trkpt lat="45.49313" lon="3.43884">
        <ele>752.825012</ele>
        <time>2018-04-30T17:01:09Z</time>
      </trkpt>
      <trkpt lat="45.49336" lon="3.43853">
        <ele>754.031982</ele>
        <time>2018-04-30T17:01:22Z</time>
      </trkpt>
      <trkpt lat="45.49347" lon="3.43832">
        <ele>755.238403</ele>
        <time>2018-04-30T17:01:30Z</time>
      </trkpt>
      <trkpt lat="45.49364" lon="3.43777">
        <ele>757.994995</ele>
        <time>2018-04-30T17:01:46Z</time>
      </trkpt>
      <trkpt lat="45.4937" lon="3.43752">
        <ele>759.429993</ele>
        <time>2018-04-30T17:01:54Z</time>
      </trkpt>
      <trkpt lat="45.49375" lon="3.43718">
        <ele>760.862793</ele>
        <time>2018-04-30T17:02:03Z</time>
      </trkpt>
      <trkpt lat="45.49381" lon="3.43655">
        <ele>762.787537</ele>
        <time>2018-04-30T17:02:21Z</time>
      </trkpt>
      <trkpt lat="45.49381" lon="3.43592">
        <ele>763.340027</ele>
        <time>2018-04-30T17:02:39Z</time>
      </trkpt>
      <trkpt lat="45.49383" lon="3.43562">
        <ele>762.590027</ele>
        <time>2018-04-30T17:02:47Z</time>
      </trkpt>
      <trkpt lat="45.4939" lon="3.43532">
        <ele>762.318726</ele>
        <time>2018-04-30T17:02:56Z</time>
      </trkpt>
      <trkpt lat="45.49402" lon="3.43503">
        <ele>761.705017</ele>
        <time>2018-04-30T17:03:06Z</time>
      </trkpt>
      <trkpt lat="45.49442" lon="3.43434">
        <ele>758.69873</ele>
        <time>2018-04-30T17:03:31Z</time>
      </trkpt>
      <trkpt lat="45.49458" lon="3.43414">
        <ele>757.790894</ele>
        <time>2018-04-30T17:03:39Z</time>
      </trkpt>
      <trkpt lat="45.49497" lon="3.43376">
        <ele>756.122498</ele>
        <time>2018-04-30T17:03:58Z</time>
      </trkpt>
      <trkpt lat="45.49566" lon="3.43307">
        <ele>757.230774</ele>
        <time>2018-04-30T17:04:31Z</time>
      </trkpt>
      <trkpt lat="45.49582" lon="3.43285">
        <ele>758.968872</ele>
        <time>2018-04-30T17:04:40Z</time>
      </trkpt>
      <trkpt lat="45.49588" lon="3.43259">
        <ele>761.794617</ele>
        <time>2018-04-30T17:04:48Z</time>
      </trkpt>
      <trkpt lat="45.49563" lon="3.43212">
        <ele>761.336609</ele>
        <time>2018-04-30T17:05:04Z</time>
      </trkpt>
      <trkpt lat="45.49554" lon="3.43174">
        <ele>762.71875</ele>
        <time>2018-04-30T17:05:16Z</time>
      </trkpt>
      <trkpt lat="45.49562" lon="3.43103">
        <ele>765.875549</ele>
        <time>2018-04-30T17:05:36Z</time>
      </trkpt>
      <trkpt lat="45.49595" lon="3.43054">
        <ele>766.898438</ele>
        <time>2018-04-30T17:05:55Z</time>
      </trkpt>
      <trkpt lat="45.49605" lon="3.43044">
        <ele>766.971008</ele>
        <time>2018-04-30T17:06:00Z</time>
      </trkpt>
      <trkpt lat="45.49619" lon="3.43025">
        <ele>767.044983</ele>
        <time>2018-04-30T17:06:07Z</time>
      </trkpt>
      <trkpt lat="45.49633" lon="3.43002">
        <ele>766.92749</ele>
        <time>2018-04-30T17:06:16Z</time>
      </trkpt>
      <trkpt lat="45.49665" lon="3.42977">
        <ele>766.131348</ele>
        <time>2018-04-30T17:06:30Z</time>
      </trkpt>
      <trkpt lat="45.49675" lon="3.42949">
        <ele>765.904602</ele>
        <time>2018-04-30T17:06:39Z</time>
      </trkpt>
      <trkpt lat="45.49678" lon="3.42921">
        <ele>765.860107</ele>
        <time>2018-04-30T17:06:47Z</time>
      </trkpt>
      <trkpt lat="45.49693" lon="3.42834">
        <ele>763.653259</ele>
        <time>2018-04-30T17:07:12Z</time>
      </trkpt>
      <trkpt lat="45.49697" lon="3.42792">
        <ele>760.547729</ele>
        <time>2018-04-30T17:07:24Z</time>
      </trkpt>
      <trkpt lat="45.49705" lon="3.42727">
        <ele>754.456238</ele>
        <time>2018-04-30T17:07:43Z</time>
      </trkpt>
      <trkpt lat="45.4971" lon="3.42643">
        <ele>748.216736</ele>
        <time>2018-04-30T17:08:06Z</time>
      </trkpt>
      <trkpt lat="45.4971" lon="3.42626">
        <ele>747.007751</ele>
        <time>2018-04-30T17:08:11Z</time>
      </trkpt>
      <trkpt lat="45.49705" lon="3.42593">
        <ele>744.628784</ele>
        <time>2018-04-30T17:08:20Z</time>
      </trkpt>
      <trkpt lat="45.49714" lon="3.42564">
        <ele>743.058777</ele>
        <time>2018-04-30T17:08:29Z</time>
      </trkpt>
      <trkpt lat="45.49718" lon="3.42533">
        <ele>741.641235</ele>
        <time>2018-04-30T17:08:38Z</time>
      </trkpt>
      <trkpt lat="45.49727" lon="3.42505">
        <ele>740.517517</ele>
        <time>2018-04-30T17:08:47Z</time>
      </trkpt>
      <trkpt lat="45.49742" lon="3.42483">
        <ele>739.322571</ele>
        <time>2018-04-30T17:08:55Z</time>
      </trkpt>
      <trkpt lat="45.49752" lon="3.42454">
        <ele>738.150635</ele>
        <time>2018-04-30T17:09:04Z</time>
      </trkpt>
      <trkpt lat="45.49752" lon="3.42418">
        <ele>738.21698</ele>
        <time>2018-04-30T17:09:14Z</time>
      </trkpt>
      <trkpt lat="45.49724" lon="3.42369">
        <ele>739.021057</ele>
        <time>2018-04-30T17:09:32Z</time>
      </trkpt>
      <trkpt lat="45.49693" lon="3.42333">
        <ele>738.018982</ele>
        <time>2018-04-30T17:09:48Z</time>
      </trkpt>
      <trkpt lat="45.49686" lon="3.42309">
        <ele>736.110291</ele>
        <time>2018-04-30T17:09:56Z</time>
      </trkpt>
      <trkpt lat="45.49687" lon="3.42277">
        <ele>734.334229</ele>
        <time>2018-04-30T17:10:05Z</time>
      </trkpt>
      <trkpt lat="45.49683" lon="3.4226">
        <ele>732.434692</ele>
        <time>2018-04-30T17:10:10Z</time>
      </trkpt>
      <trkpt lat="45.49658" lon="3.42224">
        <ele>724.932312</ele>
        <time>2018-04-30T17:10:24Z</time>
      </trkpt>
      <trkpt lat="45.49642" lon="3.42184">
        <ele>718.606323</ele>
        <time>2018-04-30T17:10:37Z</time>
      </trkpt>
      <trkpt lat="45.49629" lon="3.42162">
        <ele>708.835388</ele>
        <time>2018-04-30T17:10:45Z</time>
      </trkpt>
      <trkpt lat="45.49611" lon="3.42184">
        <ele>705.339905</ele>
        <time>2018-04-30T17:10:56Z</time>
      </trkpt>
      <trkpt lat="45.49614" lon="3.42211">
        <ele>709.083801</ele>
        <time>2018-04-30T17:11:04Z</time>
      </trkpt>
      <trkpt lat="45.49606" lon="3.42225">
        <ele>706.061035</ele>
        <time>2018-04-30T17:11:09Z</time>
      </trkpt>
      <trkpt lat="45.49578" lon="3.42266">
        <ele>694.802002</ele>
        <time>2018-04-30T17:11:25Z</time>
      </trkpt>
      <trkpt lat="45.49571" lon="3.42229">
        <ele>689.91803</ele>
        <time>2018-04-30T17:11:36Z</time>
      </trkpt>
      <trkpt lat="45.49557" lon="3.42199">
        <ele>682.224121</ele>
        <time>2018-04-30T17:11:46Z</time>
      </trkpt>
      <trkpt lat="45.49547" lon="3.42152">
        <ele>679.290039</ele>
        <time>2018-04-30T17:12:01Z</time>
      </trkpt>
      <trkpt lat="45.49543" lon="3.42124">
        <ele>678.727478</ele>
        <time>2018-04-30T17:12:09Z</time>
      </trkpt>
      <trkpt lat="45.49545" lon="3.42109">
        <ele>678.762512</ele>
        <time>2018-04-30T17:12:13Z</time>
      </trkpt>
      <trkpt lat="45.49542" lon="3.42082">
        <ele>678.692505</ele>
        <time>2018-04-30T17:12:21Z</time>
      </trkpt>
      <trkpt lat="45.49554" lon="3.42059">
        <ele>678.021301</ele>
        <time>2018-04-30T17:12:29Z</time>
      </trkpt>
      <trkpt lat="45.49553" lon="3.42029">
        <ele>675.31781</ele>
        <time>2018-04-30T17:12:37Z</time>
      </trkpt>
      <trkpt lat="45.4954" lon="3.42009">
        <ele>674.073364</ele>
        <time>2018-04-30T17:12:45Z</time>
      </trkpt>
      <trkpt lat="45.49558" lon="3.41986">
        <ele>673.920898</ele>
        <time>2018-04-30T17:12:54Z</time>
      </trkpt>
      <trkpt lat="45.49582" lon="3.4197">
        <ele>676.1875</ele>
        <time>2018-04-30T17:13:05Z</time>
      </trkpt>
      <trkpt lat="45.49585" lon="3.41957">
        <ele>677.291382</ele>
        <time>2018-04-30T17:13:09Z</time>
      </trkpt>
      <trkpt lat="45.49573" lon="3.41937">
        <ele>678.091614</ele>
        <time>2018-04-30T17:13:16Z</time>
      </trkpt>
      <trkpt lat="45.4953" lon="3.41862">
        <ele>681.561035</ele>
        <time>2018-04-30T17:13:44Z</time>
      </trkpt>
      <trkpt lat="45.49523" lon="3.41837">
        <ele>683.350708</ele>
        <time>2018-04-30T17:13:51Z</time>
      </trkpt>
      <trkpt lat="45.49545" lon="3.41849">
        <ele>686.957031</ele>
        <time>2018-04-30T17:14:02Z</time>
      </trkpt>
      <trkpt lat="45.49564" lon="3.41853">
        <ele>691.137573</ele>
        <time>2018-04-30T17:14:10Z</time>
      </trkpt>
      <trkpt lat="45.49599" lon="3.41871">
        <ele>696.379883</ele>
        <time>2018-04-30T17:14:24Z</time>
      </trkpt>
      <trkpt lat="45.49644" lon="3.41884">
        <ele>705.324036</ele>
        <time>2018-04-30T17:14:43Z</time>
      </trkpt>
      <trkpt lat="45.49672" lon="3.41872">
        <ele>714.518982</ele>
        <time>2018-04-30T17:14:55Z</time>
      </trkpt>
      <trkpt lat="45.49694" lon="3.41848">
        <ele>723.992493</ele>
        <time>2018-04-30T17:15:06Z</time>
      </trkpt>
      <trkpt lat="45.49677" lon="3.41839">
        <ele>722.884399</ele>
        <time>2018-04-30T17:15:13Z</time>
      </trkpt>
      <trkpt lat="45.4967" lon="3.41829">
        <ele>723.958008</ele>
        <time>2018-04-30T17:15:17Z</time>
      </trkpt>
      <trkpt lat="45.49652" lon="3.41813">
        <ele>724.836243</ele>
        <time>2018-04-30T17:15:25Z</time>
      </trkpt>
      <trkpt lat="45.49637" lon="3.41794">
        <ele>723.782837</ele>
        <time>2018-04-30T17:15:33Z</time>
      </trkpt>
      <trkpt lat="45.49616" lon="3.41761">
        <ele>723.222351</ele>
        <time>2018-04-30T17:15:46Z</time>
      </trkpt>
      <trkpt lat="45.49605" lon="3.41738">
        <ele>724.004578</ele>
        <time>2018-04-30T17:15:54Z</time>
      </trkpt>
      <trkpt lat="45.4959" lon="3.41702">
        <ele>725.406921</ele>
        <time>2018-04-30T17:16:05Z</time>
      </trkpt>
      <trkpt lat="45.49582" lon="3.41674">
        <ele>727.03595</ele>
        <time>2018-04-30T17:16:14Z</time>
      </trkpt>
      <trkpt lat="45.49584" lon="3.41647">
        <ele>730.316467</ele>
        <time>2018-04-30T17:16:21Z</time>
      </trkpt>
      <trkpt lat="45.49604" lon="3.41619">
        <ele>738.978638</ele>
        <time>2018-04-30T17:16:33Z</time>
      </trkpt>
      <trkpt lat="45.49621" lon="3.41604">
        <ele>744.495544</ele>
        <time>2018-04-30T17:16:41Z</time>
      </trkpt>
      <trkpt lat="45.49646" lon="3.41583">
        <ele>752.322754</ele>
        <time>2018-04-30T17:16:52Z</time>
      </trkpt>
      <trkpt lat="45.49673" lon="3.41575">
        <ele>757.399353</ele>
        <time>2018-04-30T17:17:04Z</time>
      </trkpt>
      <trkpt lat="45.49712" lon="3.41585">
        <ele>761.326538</ele>
        <time>2018-04-30T17:17:20Z</time>
      </trkpt>
      <trkpt lat="45.49731" lon="3.41584">
        <ele>763.227905</ele>
        <time>2018-04-30T17:17:27Z</time>
      </trkpt>
      <trkpt lat="45.4975" lon="3.41571">
        <ele>765.569885</ele>
        <time>2018-04-30T17:17:35Z</time>
      </trkpt>
      <trkpt lat="45.49766" lon="3.41556">
        <ele>767.518738</ele>
        <time>2018-04-30T17:17:43Z</time>
      </trkpt>
      <trkpt lat="45.49837" lon="3.4151">
        <ele>772.752258</ele>
        <time>2018-04-30T17:18:14Z</time>
      </trkpt>
      <trkpt lat="45.49848" lon="3.41504">
        <ele>773.419617</ele>
        <time>2018-04-30T17:18:19Z</time>
      </trkpt>
      <trkpt lat="45.49867" lon="3.41498">
        <ele>774.139954</ele>
        <time>2018-04-30T17:18:27Z</time>
      </trkpt>
      <trkpt lat="45.49904" lon="3.41478">
        <ele>776.35376</ele>
        <time>2018-04-30T17:18:43Z</time>
      </trkpt>
      <trkpt lat="45.49921" lon="3.41462">
        <ele>778.173767</ele>
        <time>2018-04-30T17:18:51Z</time>
      </trkpt>
      <trkpt lat="45.49932" lon="3.41425">
        <ele>781.57019</ele>
        <time>2018-04-30T17:19:02Z</time>
      </trkpt>
      <trkpt lat="45.49932" lon="3.41396">
        <ele>783.056763</ele>
        <time>2018-04-30T17:19:10Z</time>
      </trkpt>
      <trkpt lat="45.49929" lon="3.41342">
        <ele>784.608765</ele>
        <time>2018-04-30T17:19:26Z</time>
      </trkpt>
      <trkpt lat="45.49946" lon="3.41333">
        <ele>785.130005</ele>
        <time>2018-04-30T17:19:33Z</time>
      </trkpt>
      <trkpt lat="45.49956" lon="3.41304">
        <ele>785.579956</ele>
        <time>2018-04-30T17:19:42Z</time>
      </trkpt>
      <trkpt lat="45.49971" lon="3.41289">
        <ele>785.41449</ele>
        <time>2018-04-30T17:19:49Z</time>
      </trkpt>
      <trkpt lat="45.49994" lon="3.41276">
        <ele>785.801819</ele>
        <time>2018-04-30T17:19:59Z</time>
      </trkpt>
      <trkpt lat="45.50015" lon="3.41272">
        <ele>786.483948</ele>
        <time>2018-04-30T17:20:08Z</time>
      </trkpt>
      <trkpt lat="45.50034" lon="3.41279">
        <ele>787.401367</ele>
        <time>2018-04-30T17:20:15Z</time>
      </trkpt>
      <trkpt lat="45.50053" lon="3.41278">
        <ele>788.248352</ele>
        <time>2018-04-30T17:20:23Z</time>
      </trkpt>
      <trkpt lat="45.5007" lon="3.41269">
        <ele>789.101013</ele>
        <time>2018-04-30T17:20:31Z</time>
      </trkpt>
      <trkpt lat="45.50084" lon="3.41251">
        <ele>790.03125</ele>
        <time>2018-04-30T17:20:38Z</time>
      </trkpt>
      <trkpt lat="45.50107" lon="3.41258">
        <ele>790.819153</ele>
        <time>2018-04-30T17:20:47Z</time>
      </trkpt>
      <trkpt lat="45.50119" lon="3.4128">
        <ele>790.540955</ele>
        <time>2018-04-30T17:20:55Z</time>
      </trkpt>
      <trkpt lat="45.50129" lon="3.41307">
        <ele>789.758423</ele>
        <time>2018-04-30T17:21:04Z</time>
      </trkpt>
      <trkpt lat="45.50131" lon="3.41324">
        <ele>789.280029</ele>
        <time>2018-04-30T17:21:08Z</time>
      </trkpt>
      <trkpt lat="45.50133" lon="3.41358">
        <ele>788.252502</ele>
        <time>2018-04-30T17:21:18Z</time>
      </trkpt>
      <trkpt lat="45.50137" lon="3.41376">
        <ele>787.76001</ele>
        <time>2018-04-30T17:21:23Z</time>
      </trkpt>
      <trkpt lat="45.50153" lon="3.41433">
        <ele>785.36377</ele>
        <time>2018-04-30T17:21:41Z</time>
      </trkpt>
      <trkpt lat="45.50183" lon="3.41637">
        <ele>776.77771</ele>
        <time>2018-04-30T17:22:39Z</time>
      </trkpt>
      <trkpt lat="45.50202" lon="3.41657">
        <ele>773.30249</ele>
        <time>2018-04-30T17:22:48Z</time>
      </trkpt>
      <trkpt lat="45.50221" lon="3.41633">
        <ele>773.007507</ele>
        <time>2018-04-30T17:22:59Z</time>
      </trkpt>
      <trkpt lat="45.50235" lon="3.41611">
        <ele>772.817505</ele>
        <time>2018-04-30T17:23:07Z</time>
      </trkpt>
      <trkpt lat="45.50245" lon="3.41605">
        <ele>774.056763</ele>
        <time>2018-04-30T17:23:11Z</time>
      </trkpt>
      <trkpt lat="45.50265" lon="3.41607">
        <ele>775.446106</ele>
        <time>2018-04-30T17:23:19Z</time>
      </trkpt>
      <trkpt lat="45.50299" lon="3.41617">
        <ele>777.001343</ele>
        <time>2018-04-30T17:23:33Z</time>
      </trkpt>
      <trkpt lat="45.50311" lon="3.41635">
        <ele>776.71991</ele>
        <time>2018-04-30T17:23:40Z</time>
      </trkpt>
      <trkpt lat="45.50289" lon="3.41683">
        <ele>771.117493</ele>
        <time>2018-04-30T17:23:56Z</time>
      </trkpt>
      <trkpt lat="45.50278" lon="3.41698">
        <ele>768.970642</ele>
        <time>2018-04-30T17:24:02Z</time>
      </trkpt>
      <trkpt lat="45.50247" lon="3.41704">
        <ele>765.698853</ele>
        <time>2018-04-30T17:24:14Z</time>
      </trkpt>
      <trkpt lat="45.50233" lon="3.41714">
        <ele>763.96875</ele>
        <time>2018-04-30T17:24:21Z</time>
      </trkpt>
      <trkpt lat="45.50223" lon="3.41732">
        <ele>763.816223</ele>
        <time>2018-04-30T17:24:27Z</time>
      </trkpt>
      <trkpt lat="45.50227" lon="3.4176">
        <ele>761.07373</ele>
        <time>2018-04-30T17:24:35Z</time>
      </trkpt>
      <trkpt lat="45.50236" lon="3.41774">
        <ele>759.011353</ele>
        <time>2018-04-30T17:24:40Z</time>
      </trkpt>
      <trkpt lat="45.50258" lon="3.41837">
        <ele>755.673767</ele>
        <time>2018-04-30T17:25:00Z</time>
      </trkpt>
      <trkpt lat="45.50282" lon="3.41893">
        <ele>748.784729</ele>
        <time>2018-04-30T17:25:18Z</time>
      </trkpt>
      <trkpt lat="45.50288" lon="3.41904">
        <ele>748.40802</ele>
        <time>2018-04-30T17:25:22Z</time>
      </trkpt>
      <trkpt lat="45.50305" lon="3.4193">
        <ele>746.899353</ele>
        <time>2018-04-30T17:25:32Z</time>
      </trkpt>
      <trkpt lat="45.5031" lon="3.41944">
        <ele>744.654175</ele>
        <time>2018-04-30T17:25:37Z</time>
      </trkpt>
      <trkpt lat="45.5031" lon="3.41971">
        <ele>739.301575</ele>
        <time>2018-04-30T17:25:44Z</time>
      </trkpt>
      <trkpt lat="45.50336" lon="3.42026">
        <ele>728.754456</ele>
        <time>2018-04-30T17:26:03Z</time>
      </trkpt>
      <trkpt lat="45.50362" lon="3.42069">
        <ele>722.976868</ele>
        <time>2018-04-30T17:26:19Z</time>
      </trkpt>
      <trkpt lat="45.50381" lon="3.42093">
        <ele>721.142273</ele>
        <time>2018-04-30T17:26:30Z</time>
      </trkpt>
      <trkpt lat="45.50377" lon="3.42148">
        <ele>719.557312</ele>
        <time>2018-04-30T17:26:45Z</time>
      </trkpt>
      <trkpt lat="45.50366" lon="3.42182">
        <ele>718.537476</ele>
        <time>2018-04-30T17:26:56Z</time>
      </trkpt>
      <trkpt lat="45.50369" lon="3.42202">
        <ele>718.349976</ele>
        <time>2018-04-30T17:27:02Z</time>
      </trkpt>
      <trkpt lat="45.50386" lon="3.42217">
        <ele>719.179993</ele>
        <time>2018-04-30T17:27:09Z</time>
      </trkpt>
      <trkpt lat="45.50403" lon="3.42205">
        <ele>719.830017</ele>
        <time>2018-04-30T17:27:17Z</time>
      </trkpt>
      <trkpt lat="45.50423" lon="3.42232">
        <ele>722.522827</ele>
        <time>2018-04-30T17:27:28Z</time>
      </trkpt>
      <trkpt lat="45.50416" lon="3.42257">
        <ele>723.288696</ele>
        <time>2018-04-30T17:27:36Z</time>
      </trkpt>
      <trkpt lat="45.50403" lon="3.42291">
        <ele>725.17749</ele>
        <time>2018-04-30T17:27:47Z</time>
      </trkpt>
      <trkpt lat="45.50391" lon="3.42312">
        <ele>727.017517</ele>
        <time>2018-04-30T17:27:54Z</time>
      </trkpt>
      <trkpt lat="45.50398" lon="3.42343">
        <ele>730.821228</ele>
        <time>2018-04-30T17:28:04Z</time>
      </trkpt>
      <trkpt lat="45.50406" lon="3.42368">
        <ele>734.625</ele>
        <time>2018-04-30T17:28:12Z</time>
      </trkpt>
      <trkpt lat="45.50404" lon="3.42393">
        <ele>738.132507</ele>
        <time>2018-04-30T17:28:19Z</time>
      </trkpt>
      <trkpt lat="45.50421" lon="3.42395">
        <ele>738.721252</ele>
        <time>2018-04-30T17:28:26Z</time>
      </trkpt>
      <trkpt lat="45.50453" lon="3.4236">
        <ele>734.505005</ele>
        <time>2018-04-30T17:28:42Z</time>
      </trkpt>
      <trkpt lat="45.50464" lon="3.4233">
        <ele>731.377319</ele>
        <time>2018-04-30T17:28:51Z</time>
      </trkpt>
      <trkpt lat="45.50465" lon="3.42299">
        <ele>729.334167</ele>
        <time>2018-04-30T17:29:00Z</time>
      </trkpt>
      <trkpt lat="45.50474" lon="3.42295">
        <ele>729.709961</ele>
        <time>2018-04-30T17:29:04Z</time>
      </trkpt>
      <trkpt lat="45.5049" lon="3.42313">
        <ele>731.635742</ele>
        <time>2018-04-30T17:29:12Z</time>
      </trkpt>
      <trkpt lat="45.50509" lon="3.42322">
        <ele>733.280884</ele>
        <time>2018-04-30T17:29:20Z</time>
      </trkpt>
      <trkpt lat="45.50526" lon="3.42362">
        <ele>736.687866</ele>
        <time>2018-04-30T17:29:33Z</time>
      </trkpt>
      <trkpt lat="45.50525" lon="3.42385">
        <ele>739.039429</ele>
        <time>2018-04-30T17:29:39Z</time>
      </trkpt>
      <trkpt lat="45.50502" lon="3.42411">
        <ele>742.499268</ele>
        <time>2018-04-30T17:29:51Z</time>
      </trkpt>
      <trkpt lat="45.50484" lon="3.42422">
        <ele>744.130005</ele>
        <time>2018-04-30T17:29:59Z</time>
      </trkpt>
      <trkpt lat="45.50486" lon="3.42441">
        <ele>747.070007</ele>
        <time>2018-04-30T17:30:04Z</time>
      </trkpt>
      <trkpt lat="45.50515" lon="3.42485">
        <ele>753.03125</ele>
        <time>2018-04-30T17:30:21Z</time>
      </trkpt>
      <trkpt lat="45.50593" lon="3.42633">
        <ele>764.633728</ele>
        <time>2018-04-30T17:31:13Z</time>
      </trkpt>
      <trkpt lat="45.50617" lon="3.42676">
        <ele>769.920227</ele>
        <time>2018-04-30T17:31:29Z</time>
      </trkpt>
      <trkpt lat="45.50649" lon="3.42729">
        <ele>777.467468</ele>
        <time>2018-04-30T17:31:48Z</time>
      </trkpt>
      <trkpt lat="45.5067" lon="3.4276">
        <ele>781.149475</ele>
        <time>2018-04-30T17:32:00Z</time>
      </trkpt>
      <trkpt lat="45.50712" lon="3.42813">
        <ele>788.2099</ele>
        <time>2018-04-30T17:32:23Z</time>
      </trkpt>
      <trkpt lat="45.50751" lon="3.42855">
        <ele>794.087524</ele>
        <time>2018-04-30T17:32:42Z</time>
      </trkpt>
      <trkpt lat="45.50779" lon="3.42889">
        <ele>797.193726</ele>
        <time>2018-04-30T17:32:57Z</time>
      </trkpt>
      <trkpt lat="45.50797" lon="3.42901">
        <ele>798.162476</ele>
        <time>2018-04-30T17:33:05Z</time>
      </trkpt>
      <trkpt lat="45.50836" lon="3.42924">
        <ele>799.213745</ele>
        <time>2018-04-30T17:33:22Z</time>
      </trkpt>
      <trkpt lat="45.50872" lon="3.42942">
        <ele>799.293762</ele>
        <time>2018-04-30T17:33:37Z</time>
      </trkpt>
      <trkpt lat="45.50903" lon="3.4296">
        <ele>799.431396</ele>
        <time>2018-04-30T17:33:51Z</time>
      </trkpt>
      <trkpt lat="45.50922" lon="3.42977">
        <ele>800.077515</ele>
        <time>2018-04-30T17:33:59Z</time>
      </trkpt>
      <trkpt lat="45.50937" lon="3.42997">
        <ele>801.153564</ele>
        <time>2018-04-30T17:34:08Z</time>
      </trkpt>
      <trkpt lat="45.50961" lon="3.43024">
        <ele>801.34845</ele>
        <time>2018-04-30T17:34:20Z</time>
      </trkpt>
      <trkpt lat="45.50987" lon="3.43049">
        <ele>801.62915</ele>
        <time>2018-04-30T17:34:32Z</time>
      </trkpt>
      <trkpt lat="45.51019" lon="3.43086">
        <ele>802.774231</ele>
        <time>2018-04-30T17:34:49Z</time>
      </trkpt>
      <trkpt lat="45.5103" lon="3.43111">
        <ele>803.667786</ele>
        <time>2018-04-30T17:34:57Z</time>
      </trkpt>
      <trkpt lat="45.51055" lon="3.43141">
        <ele>803.871277</ele>
        <time>2018-04-30T17:35:10Z</time>
      </trkpt>
      <trkpt lat="45.51091" lon="3.43171">
        <ele>803.913391</ele>
        <time>2018-04-30T17:35:27Z</time>
      </trkpt>
      <trkpt lat="45.51129" lon="3.432">
        <ele>803.843018</ele>
        <time>2018-04-30T17:35:44Z</time>
      </trkpt>
      <trkpt lat="45.51165" lon="3.4323">
        <ele>804.014771</ele>
        <time>2018-04-30T17:36:01Z</time>
      </trkpt>
      <trkpt lat="45.51183" lon="3.43224">
        <ele>804.224365</ele>
        <time>2018-04-30T17:36:08Z</time>
      </trkpt>
      <trkpt lat="45.512" lon="3.43212">
        <ele>804.287292</ele>
        <time>2018-04-30T17:36:16Z</time>
      </trkpt>
      <trkpt lat="45.51215" lon="3.43193">
        <ele>804.1875</ele>
        <time>2018-04-30T17:36:24Z</time>
      </trkpt>
      <trkpt lat="45.51247" lon="3.43157">
        <ele>803.381653</ele>
        <time>2018-04-30T17:36:40Z</time>
      </trkpt>
      <trkpt lat="45.51267" lon="3.43127">
        <ele>802.29425</ele>
        <time>2018-04-30T17:36:51Z</time>
      </trkpt>
      <trkpt lat="45.51317" lon="3.43063">
        <ele>799.695862</ele>
        <time>2018-04-30T17:37:18Z</time>
      </trkpt>
      <trkpt lat="45.51329" lon="3.43035">
        <ele>798.765503</ele>
        <time>2018-04-30T17:37:27Z</time>
      </trkpt>
      <trkpt lat="45.51339" lon="3.42988">
        <ele>796.883667</ele>
        <time>2018-04-30T17:37:41Z</time>
      </trkpt>
      <trkpt lat="45.51348" lon="3.42907">
        <ele>793.665894</ele>
        <time>2018-04-30T17:38:04Z</time>
      </trkpt>
      <trkpt lat="45.51354" lon="3.42878">
        <ele>792.459473</ele>
        <time>2018-04-30T17:38:12Z</time>
      </trkpt>
      <trkpt lat="45.51366" lon="3.42845">
        <ele>791.537476</ele>
        <time>2018-04-30T17:38:23Z</time>
      </trkpt>
      <trkpt lat="45.51379" lon="3.42792">
        <ele>790.583557</ele>
        <time>2018-04-30T17:38:38Z</time>
      </trkpt>
      <trkpt lat="45.51384" lon="3.42759">
        <ele>790.619995</ele>
        <time>2018-04-30T17:38:48Z</time>
      </trkpt>
      <trkpt lat="45.5139" lon="3.42745">
        <ele>790.835938</ele>
        <time>2018-04-30T17:38:52Z</time>
      </trkpt>
      <trkpt lat="45.51404" lon="3.42725">
        <ele>791.478821</ele>
        <time>2018-04-30T17:39:00Z</time>
      </trkpt>
      <trkpt lat="45.51414" lon="3.42714">
        <ele>792.11261</ele>
        <time>2018-04-30T17:39:06Z</time>
      </trkpt>
      <trkpt lat="45.51445" lon="3.42689">
        <ele>794.27887</ele>
        <time>2018-04-30T17:39:20Z</time>
      </trkpt>
      <trkpt lat="45.51463" lon="3.42668">
        <ele>795.647034</ele>
        <time>2018-04-30T17:39:29Z</time>
      </trkpt>
      <trkpt lat="45.51484" lon="3.42637">
        <ele>797.655579</ele>
        <time>2018-04-30T17:39:41Z</time>
      </trkpt>
      <trkpt lat="45.51496" lon="3.42616">
        <ele>798.465027</ele>
        <time>2018-04-30T17:39:48Z</time>
      </trkpt>
      <trkpt lat="45.5151" lon="3.42563">
        <ele>799.094971</ele>
        <time>2018-04-30T17:40:04Z</time>
      </trkpt>
      <trkpt lat="45.51514" lon="3.42534">
        <ele>799.144653</ele>
        <time>2018-04-30T17:40:13Z</time>
      </trkpt>
      <trkpt lat="45.51518" lon="3.42518">
        <ele>799.242798</ele>
        <time>2018-04-30T17:40:17Z</time>
      </trkpt>
      <trkpt lat="45.51535" lon="3.42454">
        <ele>799.522705</ele>
        <time>2018-04-30T17:40:36Z</time>
      </trkpt>
      <trkpt lat="45.51541" lon="3.42439">
        <ele>799.560242</ele>
        <time>2018-04-30T17:40:41Z</time>
      </trkpt>
      <trkpt lat="45.51557" lon="3.42417">
        <ele>800.170776</ele>
        <time>2018-04-30T17:40:50Z</time>
      </trkpt>
      <trkpt lat="45.51574" lon="3.42398">
        <ele>800.869873</ele>
        <time>2018-04-30T17:40:59Z</time>
      </trkpt>
      <trkpt lat="45.5159" lon="3.42375">
        <ele>801.539978</ele>
        <time>2018-04-30T17:41:08Z</time>
      </trkpt>
      <trkpt lat="45.5162" lon="3.42323">
        <ele>803.570251</ele>
        <time>2018-04-30T17:41:27Z</time>
      </trkpt>
      <trkpt lat="45.51642" lon="3.42287">
        <ele>804.787354</ele>
        <time>2018-04-30T17:41:40Z</time>
      </trkpt>
      <trkpt lat="45.51655" lon="3.42263">
        <ele>805.485168</ele>
        <time>2018-04-30T17:41:48Z</time>
      </trkpt>
      <trkpt lat="45.51669" lon="3.4222">
        <ele>806.278198</ele>
        <time>2018-04-30T17:42:02Z</time>
      </trkpt>
      <trkpt lat="45.5168" lon="3.42193">
        <ele>806.712524</ele>
        <time>2018-04-30T17:42:10Z</time>
      </trkpt>
      <trkpt lat="45.51688" lon="3.42181">
        <ele>806.901245</ele>
        <time>2018-04-30T17:42:15Z</time>
      </trkpt>
      <trkpt lat="45.51717" lon="3.42151">
        <ele>807.350403</ele>
        <time>2018-04-30T17:42:30Z</time>
      </trkpt>
      <trkpt lat="45.51753" lon="3.42108">
        <ele>807.124878</ele>
        <time>2018-04-30T17:42:48Z</time>
      </trkpt>
      <trkpt lat="45.5178" lon="3.42065">
        <ele>805.319519</ele>
        <time>2018-04-30T17:43:04Z</time>
      </trkpt>
      <trkpt lat="45.51799" lon="3.42031">
        <ele>802.368591</ele>
        <time>2018-04-30T17:43:17Z</time>
      </trkpt>
      <trkpt lat="45.5182" lon="3.41979">
        <ele>799.066406</ele>
        <time>2018-04-30T17:43:33Z</time>
      </trkpt>
      <trkpt lat="45.51828" lon="3.41965">
        <ele>798.548523</ele>
        <time>2018-04-30T17:43:38Z</time>
      </trkpt>
      <trkpt lat="45.51842" lon="3.41928">
        <ele>796.552551</ele>
        <time>2018-04-30T17:43:50Z</time>
      </trkpt>
      <trkpt lat="45.51854" lon="3.41881">
        <ele>793.356812</ele>
        <time>2018-04-30T17:44:04Z</time>
      </trkpt>
      <trkpt lat="45.51872" lon="3.41795">
        <ele>785.390991</ele>
        <time>2018-04-30T17:44:29Z</time>
      </trkpt>
      <trkpt lat="45.51878" lon="3.41775">
        <ele>783.728027</ele>
        <time>2018-04-30T17:44:35Z</time>
      </trkpt>
      <trkpt lat="45.51895" lon="3.41735">
        <ele>779.607971</ele>
        <time>2018-04-30T17:44:49Z</time>
      </trkpt>
      <trkpt lat="45.51919" lon="3.41672">
        <ele>776.798889</ele>
        <time>2018-04-30T17:45:09Z</time>
      </trkpt>
      <trkpt lat="45.51929" lon="3.41653">
        <ele>775.580017</ele>
        <time>2018-04-30T17:45:15Z</time>
      </trkpt>
      <trkpt lat="45.5194" lon="3.41638">
        <ele>774.349976</ele>
        <time>2018-04-30T17:45:22Z</time>
      </trkpt>
      <trkpt lat="45.5204" lon="3.41542">
        <ele>762.728394</ele>
        <time>2018-04-30T17:46:10Z</time>
      </trkpt>
      <trkpt lat="45.52066" lon="3.41512">
        <ele>760.38385</ele>
        <time>2018-04-30T17:46:23Z</time>
      </trkpt>
      <trkpt lat="45.52096" lon="3.41479">
        <ele>758.022461</ele>
        <time>2018-04-30T17:46:38Z</time>
      </trkpt>
      <trkpt lat="45.52144" lon="3.41416">
        <ele>750.27887</ele>
        <time>2018-04-30T17:47:04Z</time>
      </trkpt>
      <trkpt lat="45.52151" lon="3.41408">
        <ele>749.225464</ele>
        <time>2018-04-30T17:47:08Z</time>
      </trkpt>
      <trkpt lat="45.52177" lon="3.41389">
        <ele>746.639465</ele>
        <time>2018-04-30T17:47:20Z</time>
      </trkpt>
      <trkpt lat="45.522" lon="3.41378">
        <ele>746.347656</ele>
        <time>2018-04-30T17:47:29Z</time>
      </trkpt>
      <trkpt lat="45.52221" lon="3.4133">
        <ele>743.955139</ele>
        <time>2018-04-30T17:47:45Z</time>
      </trkpt>
      <trkpt lat="45.52223" lon="3.41316">
        <ele>743.411865</ele>
        <time>2018-04-30T17:47:49Z</time>
      </trkpt>
      <trkpt lat="45.52256" lon="3.41249">
        <ele>743.706238</ele>
        <time>2018-04-30T17:48:12Z</time>
      </trkpt>
      <trkpt lat="45.52268" lon="3.41184">
        <ele>738.388733</ele>
        <time>2018-04-30T17:48:31Z</time>
      </trkpt>
      <trkpt lat="45.52275" lon="3.41121">
        <ele>733.544067</ele>
        <time>2018-04-30T17:48:48Z</time>
      </trkpt>
      <trkpt lat="45.52281" lon="3.41086">
        <ele>731.86499</ele>
        <time>2018-04-30T17:48:59Z</time>
      </trkpt>
      <trkpt lat="45.52286" lon="3.41067">
        <ele>731.222473</ele>
        <time>2018-04-30T17:49:04Z</time>
      </trkpt>
      <trkpt lat="45.52292" lon="3.41033">
        <ele>729.545288</ele>
        <time>2018-04-30T17:49:14Z</time>
      </trkpt>
      <trkpt lat="45.52297" lon="3.40985">
        <ele>726.185791</ele>
        <time>2018-04-30T17:49:28Z</time>
      </trkpt>
      <trkpt lat="45.52304" lon="3.40952">
        <ele>723.697754</ele>
        <time>2018-04-30T17:49:37Z</time>
      </trkpt>
      <trkpt lat="45.5231" lon="3.40936">
        <ele>722.497498</ele>
        <time>2018-04-30T17:49:42Z</time>
      </trkpt>
      <trkpt lat="45.52325" lon="3.40905">
        <ele>720.118652</ele>
        <time>2018-04-30T17:49:53Z</time>
      </trkpt>
      <trkpt lat="45.52347" lon="3.40865">
        <ele>715.485474</ele>
        <time>2018-04-30T17:50:07Z</time>
      </trkpt>
      <trkpt lat="45.52362" lon="3.40847">
        <ele>712.6875</ele>
        <time>2018-04-30T17:50:15Z</time>
      </trkpt>
      <trkpt lat="45.52399" lon="3.40818">
        <ele>709.668518</ele>
        <time>2018-04-30T17:50:32Z</time>
      </trkpt>
      <trkpt lat="45.52438" lon="3.40814">
        <ele>710.293152</ele>
        <time>2018-04-30T17:50:47Z</time>
      </trkpt>
      <trkpt lat="45.52463" lon="3.40805">
        <ele>711.004456</ele>
        <time>2018-04-30T17:50:58Z</time>
      </trkpt>
      <trkpt lat="45.52483" lon="3.40783">
        <ele>711.762878</ele>
        <time>2018-04-30T17:51:08Z</time>
      </trkpt>
      <trkpt lat="45.52489" lon="3.40767">
        <ele>712.039978</ele>
        <time>2018-04-30T17:51:13Z</time>
      </trkpt>
      <trkpt lat="45.5249" lon="3.40735">
        <ele>711.112488</ele>
        <time>2018-04-30T17:51:22Z</time>
      </trkpt>
      <trkpt lat="45.52484" lon="3.40705">
        <ele>709.88501</ele>
        <time>2018-04-30T17:51:31Z</time>
      </trkpt>
      <trkpt lat="45.52479" lon="3.40691">
        <ele>709.389832</ele>
        <time>2018-04-30T17:51:35Z</time>
      </trkpt>
      <trkpt lat="45.52448" lon="3.40701">
        <ele>705.39447</ele>
        <time>2018-04-30T17:51:48Z</time>
      </trkpt>
      <trkpt lat="45.52428" lon="3.40708">
        <ele>702.421265</ele>
        <time>2018-04-30T17:51:56Z</time>
      </trkpt>
      <trkpt lat="45.52418" lon="3.407">
        <ele>701.152405</ele>
        <time>2018-04-30T17:52:01Z</time>
      </trkpt>
      <trkpt lat="45.52405" lon="3.40638">
        <ele>699.75647</ele>
        <time>2018-04-30T17:52:19Z</time>
      </trkpt>
      <trkpt lat="45.52395" lon="3.40593">
        <ele>699.237488</ele>
        <time>2018-04-30T17:52:32Z</time>
      </trkpt>
      <trkpt lat="45.52387" lon="3.40566">
        <ele>698.473267</ele>
        <time>2018-04-30T17:52:41Z</time>
      </trkpt>
      <trkpt lat="45.5237" lon="3.40548">
        <ele>695.283203</ele>
        <time>2018-04-30T17:52:49Z</time>
      </trkpt>
      <trkpt lat="45.52353" lon="3.40527">
        <ele>692.644043</ele>
        <time>2018-04-30T17:52:58Z</time>
      </trkpt>
      <trkpt lat="45.5234" lon="3.40497">
        <ele>689.424988</ele>
        <time>2018-04-30T17:53:08Z</time>
      </trkpt>
      <trkpt lat="45.52331" lon="3.40467">
        <ele>687.494995</ele>
        <time>2018-04-30T17:53:17Z</time>
      </trkpt>
      <trkpt lat="45.52327" lon="3.40448">
        <ele>687.05542</ele>
        <time>2018-04-30T17:53:22Z</time>
      </trkpt>
      <trkpt lat="45.52327" lon="3.40413">
        <ele>688.083374</ele>
        <time>2018-04-30T17:53:32Z</time>
      </trkpt>
      <trkpt lat="45.52332" lon="3.40387">
        <ele>690.050781</ele>
        <time>2018-04-30T17:53:40Z</time>
      </trkpt>
      <trkpt lat="45.52335" lon="3.40324">
        <ele>689.276062</ele>
        <time>2018-04-30T17:53:57Z</time>
      </trkpt>
      <trkpt lat="45.52336" lon="3.40308">
        <ele>688.838867</ele>
        <time>2018-04-30T17:54:02Z</time>
      </trkpt>
      <trkpt lat="45.52341" lon="3.40266">
        <ele>688.772278</ele>
        <time>2018-04-30T17:54:14Z</time>
      </trkpt>
      <trkpt lat="45.52339" lon="3.40247">
        <ele>688.784424</ele>
        <time>2018-04-30T17:54:19Z</time>
      </trkpt>
      <trkpt lat="45.52304" lon="3.402">
        <ele>681.110168</ele>
        <time>2018-04-30T17:54:38Z</time>
      </trkpt>
      <trkpt lat="45.5229" lon="3.40141">
        <ele>682.166626</ele>
        <time>2018-04-30T17:54:56Z</time>
      </trkpt>
      <trkpt lat="45.5229" lon="3.40125">
        <ele>683.335449</ele>
        <time>2018-04-30T17:55:00Z</time>
      </trkpt>
      <trkpt lat="45.52285" lon="3.4009">
        <ele>684.423523</ele>
        <time>2018-04-30T17:55:10Z</time>
      </trkpt>
      <trkpt lat="45.52278" lon="3.40064">
        <ele>683.567993</ele>
        <time>2018-04-30T17:55:18Z</time>
      </trkpt>
      <trkpt lat="45.52282" lon="3.40041">
        <ele>684.047058</ele>
        <time>2018-04-30T17:55:25Z</time>
      </trkpt>
      <trkpt lat="45.52305" lon="3.40014">
        <ele>688.10968</ele>
        <time>2018-04-30T17:55:37Z</time>
      </trkpt>
      <trkpt lat="45.52339" lon="3.39976">
        <ele>690.769653</ele>
        <time>2018-04-30T17:55:54Z</time>
      </trkpt>
      <trkpt lat="45.52348" lon="3.39965">
        <ele>691.297546</ele>
        <time>2018-04-30T17:55:59Z</time>
      </trkpt>
      <trkpt lat="45.52373" lon="3.39918">
        <ele>692.22937</ele>
        <time>2018-04-30T17:56:15Z</time>
      </trkpt>
      <trkpt lat="45.52391" lon="3.39904">
        <ele>694.336792</ele>
        <time>2018-04-30T17:56:24Z</time>
      </trkpt>
      <trkpt lat="45.52404" lon="3.39884">
        <ele>695.660828</ele>
        <time>2018-04-30T17:56:31Z</time>
      </trkpt>
      <trkpt lat="45.52412" lon="3.39861">
        <ele>697.090027</ele>
        <time>2018-04-30T17:56:39Z</time>
      </trkpt>
      <trkpt lat="45.52427" lon="3.39825">
        <ele>698.359985</ele>
        <time>2018-04-30T17:56:50Z</time>
      </trkpt>
      <trkpt lat="45.52441" lon="3.39802">
        <ele>699.40094</ele>
        <time>2018-04-30T17:56:59Z</time>
      </trkpt>
      <trkpt lat="45.52452" lon="3.39778">
        <ele>699.888</ele>
        <time>2018-04-30T17:57:07Z</time>
      </trkpt>
      <trkpt lat="45.52474" lon="3.39755">
        <ele>700.985046</ele>
        <time>2018-04-30T17:57:18Z</time>
      </trkpt>
      <trkpt lat="45.52511" lon="3.39779">
        <ele>703.205017</ele>
        <time>2018-04-30T17:57:34Z</time>
      </trkpt>
      <trkpt lat="45.52521" lon="3.39784">
        <ele>703.419983</ele>
        <time>2018-04-30T17:57:38Z</time>
      </trkpt>
      <trkpt lat="45.52541" lon="3.39784">
        <ele>703.872498</ele>
        <time>2018-04-30T17:57:46Z</time>
      </trkpt>
      <trkpt lat="45.5256" lon="3.39788">
        <ele>703.83905</ele>
        <time>2018-04-30T17:57:54Z</time>
      </trkpt>
      <trkpt lat="45.52579" lon="3.39781">
        <ele>703.528625</ele>
        <time>2018-04-30T17:58:01Z</time>
      </trkpt>
      <trkpt lat="45.52607" lon="3.39734">
        <ele>700.85144</ele>
        <time>2018-04-30T17:58:19Z</time>
      </trkpt>
      <trkpt lat="45.52632" lon="3.39706">
        <ele>697.223328</ele>
        <time>2018-04-30T17:58:31Z</time>
      </trkpt>
      <trkpt lat="45.52675" lon="3.39679">
        <ele>692.224426</ele>
        <time>2018-04-30T17:58:50Z</time>
      </trkpt>
      <trkpt lat="45.5269" lon="3.39677">
        <ele>690.446228</ele>
        <time>2018-04-30T17:58:56Z</time>
      </trkpt>
      <trkpt lat="45.52722" lon="3.39681">
        <ele>686.419983</ele>
        <time>2018-04-30T17:59:09Z</time>
      </trkpt>
      <trkpt lat="45.52767" lon="3.39698">
        <ele>681.557678</ele>
        <time>2018-04-30T17:59:28Z</time>
      </trkpt>
      <trkpt lat="45.52789" lon="3.39691">
        <ele>680.575806</ele>
        <time>2018-04-30T17:59:37Z</time>
      </trkpt>
      <trkpt lat="45.52829" lon="3.3966">
        <ele>679.206238</ele>
        <time>2018-04-30T17:59:55Z</time>
      </trkpt>
      <trkpt lat="45.52881" lon="3.39628">
        <ele>679.963196</ele>
        <time>2018-04-30T18:00:18Z</time>
      </trkpt>
      <trkpt lat="45.52894" lon="3.396">
        <ele>679.875244</ele>
        <time>2018-04-30T18:00:27Z</time>
      </trkpt>
      <trkpt lat="45.52896" lon="3.39573">
        <ele>678.91394</ele>
        <time>2018-04-30T18:00:35Z</time>
      </trkpt>
      <trkpt lat="45.52902" lon="3.39541">
        <ele>677.793945</ele>
        <time>2018-04-30T18:00:44Z</time>
      </trkpt>
      <trkpt lat="45.52931" lon="3.39496">
        <ele>677.537537</ele>
        <time>2018-04-30T18:01:01Z</time>
      </trkpt>
      <trkpt lat="45.52952" lon="3.39467">
        <ele>676.11499</ele>
        <time>2018-04-30T18:01:13Z</time>
      </trkpt>
      <trkpt lat="45.52987" lon="3.39428">
        <ele>673.557495</ele>
        <time>2018-04-30T18:01:30Z</time>
      </trkpt>
      <trkpt lat="45.53011" lon="3.39407">
        <ele>671.864258</ele>
        <time>2018-04-30T18:01:42Z</time>
      </trkpt>
      <trkpt lat="45.53042" lon="3.39388">
        <ele>669.412659</ele>
        <time>2018-04-30T18:01:55Z</time>
      </trkpt>
      <trkpt lat="45.53118" lon="3.39336">
        <ele>659.51001</ele>
        <time>2018-04-30T18:02:29Z</time>
      </trkpt>
      <trkpt lat="45.53145" lon="3.39315">
        <ele>656.125122</ele>
        <time>2018-04-30T18:02:41Z</time>
      </trkpt>
      <trkpt lat="45.53187" lon="3.39287">
        <ele>652.879211</ele>
        <time>2018-04-30T18:03:00Z</time>
      </trkpt>
      <trkpt lat="45.53207" lon="3.39278">
        <ele>651.521545</ele>
        <time>2018-04-30T18:03:08Z</time>
      </trkpt>
      <trkpt lat="45.53227" lon="3.39279">
        <ele>650.85144</ele>
        <time>2018-04-30T18:03:16Z</time>
      </trkpt>
      <trkpt lat="45.53243" lon="3.39259">
        <ele>649.28363</ele>
        <time>2018-04-30T18:03:24Z</time>
      </trkpt>
      <trkpt lat="45.53272" lon="3.39195">
        <ele>649</ele>
        <time>2018-04-30T18:03:46Z</time>
      </trkpt>
      <trkpt lat="45.53302" lon="3.39125">
        <ele>645.627502</ele>
        <time>2018-04-30T18:04:09Z</time>
      </trkpt>
      <trkpt lat="45.53313" lon="3.39096">
        <ele>643.960022</ele>
        <time>2018-04-30T18:04:18Z</time>
      </trkpt>
      <trkpt lat="45.53322" lon="3.39064">
        <ele>642.440002</ele>
        <time>2018-04-30T18:04:28Z</time>
      </trkpt>
      <trkpt lat="45.53328" lon="3.39029">
        <ele>641.63501</ele>
        <time>2018-04-30T18:04:37Z</time>
      </trkpt>
      <trkpt lat="45.53327" lon="3.39011">
        <ele>641.722473</ele>
        <time>2018-04-30T18:04:43Z</time>
      </trkpt>
      <trkpt lat="45.53324" lon="3.38972">
        <ele>642.848755</ele>
        <time>2018-04-30T18:04:54Z</time>
      </trkpt>
      <trkpt lat="45.53324" lon="3.38952">
        <ele>643.179993</ele>
        <time>2018-04-30T18:04:59Z</time>
      </trkpt>
      <trkpt lat="45.53336" lon="3.38918">
        <ele>643.687866</ele>
        <time>2018-04-30T18:05:10Z</time>
      </trkpt>
      <trkpt lat="45.53358" lon="3.38905">
        <ele>642.917297</ele>
        <time>2018-04-30T18:05:19Z</time>
      </trkpt>
      <trkpt lat="45.53392" lon="3.38896">
        <ele>643.047668</ele>
        <time>2018-04-30T18:05:33Z</time>
      </trkpt>
      <trkpt lat="45.53436" lon="3.38881">
        <ele>643.558472</ele>
        <time>2018-04-30T18:05:51Z</time>
      </trkpt>
      <trkpt lat="45.53448" lon="3.38874">
        <ele>644.046631</ele>
        <time>2018-04-30T18:05:56Z</time>
      </trkpt>
      <trkpt lat="45.53485" lon="3.38835">
        <ele>643.249207</ele>
        <time>2018-04-30T18:06:15Z</time>
      </trkpt>
      <trkpt lat="45.535" lon="3.38812">
        <ele>643.273193</ele>
        <time>2018-04-30T18:06:23Z</time>
      </trkpt>
      <trkpt lat="45.53522" lon="3.38767">
        <ele>646.095032</ele>
        <time>2018-04-30T18:06:39Z</time>
      </trkpt>
      <trkpt lat="45.53536" lon="3.38749">
        <ele>645.435242</ele>
        <time>2018-04-30T18:06:46Z</time>
      </trkpt>
      <trkpt lat="45.53569" lon="3.38721">
        <ele>643.648376</ele>
        <time>2018-04-30T18:07:02Z</time>
      </trkpt>
      <trkpt lat="45.5361" lon="3.38681">
        <ele>645.693726</ele>
        <time>2018-04-30T18:07:21Z</time>
      </trkpt>
      <trkpt lat="45.53645" lon="3.38641">
        <ele>646.696228</ele>
        <time>2018-04-30T18:07:39Z</time>
      </trkpt>
      <trkpt lat="45.53662" lon="3.38625">
        <ele>646.723755</ele>
        <time>2018-04-30T18:07:48Z</time>
      </trkpt>
      <trkpt lat="45.53677" lon="3.38641">
        <ele>645.357483</ele>
        <time>2018-04-30T18:07:55Z</time>
      </trkpt>
      <trkpt lat="45.53695" lon="3.38698">
        <ele>640.375305</ele>
        <time>2018-04-30T18:08:12Z</time>
      </trkpt>
      <trkpt lat="45.53712" lon="3.38717">
        <ele>637.497986</ele>
        <time>2018-04-30T18:08:21Z</time>
      </trkpt>
      <trkpt lat="45.53731" lon="3.38719">
        <ele>637.083679</ele>
        <time>2018-04-30T18:08:29Z</time>
      </trkpt>
      <trkpt lat="45.53753" lon="3.38717">
        <ele>636.710999</ele>
        <time>2018-04-30T18:08:38Z</time>
      </trkpt>
      <trkpt lat="45.53765" lon="3.38719">
        <ele>636.016846</ele>
        <time>2018-04-30T18:08:42Z</time>
      </trkpt>
      <trkpt lat="45.53785" lon="3.38727">
        <ele>631.6297</ele>
        <time>2018-04-30T18:08:51Z</time>
      </trkpt>
      <trkpt lat="45.53797" lon="3.3873">
        <ele>628.905823</ele>
        <time>2018-04-30T18:08:56Z</time>
      </trkpt>
      <trkpt lat="45.5382" lon="3.3872">
        <ele>626.401001</ele>
        <time>2018-04-30T18:09:05Z</time>
      </trkpt>
      <trkpt lat="45.53846" lon="3.38684">
        <ele>623.228149</ele>
        <time>2018-04-30T18:09:20Z</time>
      </trkpt>
      <trkpt lat="45.53864" lon="3.38671">
        <ele>620.461975</ele>
        <time>2018-04-30T18:09:28Z</time>
      </trkpt>
      <trkpt lat="45.53886" lon="3.38671">
        <ele>615.558411</ele>
        <time>2018-04-30T18:09:37Z</time>
      </trkpt>
      <trkpt lat="45.53913" lon="3.38683">
        <ele>606.780029</ele>
        <time>2018-04-30T18:09:49Z</time>
      </trkpt>
      <trkpt lat="45.5393" lon="3.38697">
        <ele>601.3125</ele>
        <time>2018-04-30T18:09:57Z</time>
      </trkpt>
      <trkpt lat="45.53948" lon="3.38705">
        <ele>598.902222</ele>
        <time>2018-04-30T18:10:04Z</time>
      </trkpt>
      <trkpt lat="45.53986" lon="3.38735">
        <ele>590.46344</ele>
        <time>2018-04-30T18:10:22Z</time>
      </trkpt>
      <trkpt lat="45.54031" lon="3.38765">
        <ele>582.320313</ele>
        <time>2018-04-30T18:10:42Z</time>
      </trkpt>
      <trkpt lat="45.54046" lon="3.38788">
        <ele>576.541626</ele>
        <time>2018-04-30T18:10:50Z</time>
      </trkpt>
      <trkpt lat="45.54088" lon="3.38828">
        <ele>572.59613</ele>
        <time>2018-04-30T18:11:11Z</time>
      </trkpt>
      <trkpt lat="45.541" lon="3.38836">
        <ele>572.482483</ele>
        <time>2018-04-30T18:11:16Z</time>
      </trkpt>
      <trkpt lat="45.54121" lon="3.38853">
        <ele>571.342468</ele>
        <time>2018-04-30T18:11:26Z</time>
      </trkpt>
      <trkpt lat="45.54152" lon="3.38885">
        <ele>567.302979</ele>
        <time>2018-04-30T18:11:41Z</time>
      </trkpt>
      <trkpt lat="45.54165" lon="3.38907">
        <ele>562.19751</ele>
        <time>2018-04-30T18:11:50Z</time>
      </trkpt>
      <trkpt lat="45.54178" lon="3.38915">
        <ele>560.67749</ele>
        <time>2018-04-30T18:11:55Z</time>
      </trkpt>
      <trkpt lat="45.5422" lon="3.38933">
        <ele>552.372498</ele>
        <time>2018-04-30T18:12:13Z</time>
      </trkpt>
      <trkpt lat="45.54257" lon="3.38972">
        <ele>534.15564</ele>
        <time>2018-04-30T18:12:31Z</time>
      </trkpt>
      <trkpt lat="45.54288" lon="3.38982">
        <ele>528.95282</ele>
        <time>2018-04-30T18:12:44Z</time>
      </trkpt>
      <trkpt lat="45.54307" lon="3.38966">
        <ele>531.992432</ele>
        <time>2018-04-30T18:12:53Z</time>
      </trkpt>
      <trkpt lat="45.54328" lon="3.38962">
        <ele>533.403381</ele>
        <time>2018-04-30T18:13:02Z</time>
      </trkpt>
      <trkpt lat="45.54368" lon="3.3896">
        <ele>535.288025</ele>
        <time>2018-04-30T18:13:18Z</time>
      </trkpt>
      <trkpt lat="45.54419" lon="3.38953">
        <ele>539.944397</ele>
        <time>2018-04-30T18:13:38Z</time>
      </trkpt>
      <trkpt lat="45.54438" lon="3.38959">
        <ele>538.802551</ele>
        <time>2018-04-30T18:13:46Z</time>
      </trkpt>
      <trkpt lat="45.54468" lon="3.38965">
        <ele>539.408325</ele>
        <time>2018-04-30T18:13:58Z</time>
      </trkpt>
      <trkpt lat="45.54486" lon="3.38979">
        <ele>535.623291</ele>
        <time>2018-04-30T18:14:06Z</time>
      </trkpt>
      <trkpt lat="45.54498" lon="3.38981">
        <ele>534.992859</ele>
        <time>2018-04-30T18:14:11Z</time>
      </trkpt>
      <trkpt lat="45.54521" lon="3.38978">
        <ele>536.599976</ele>
        <time>2018-04-30T18:14:20Z</time>
      </trkpt>
      <trkpt lat="45.54538" lon="3.38966">
        <ele>541.834778</ele>
        <time>2018-04-30T18:14:28Z</time>
      </trkpt>
      <trkpt lat="45.54573" lon="3.38949">
        <ele>542.914124</ele>
        <time>2018-04-30T18:14:43Z</time>
      </trkpt>
      <trkpt lat="45.5461" lon="3.38945">
        <ele>535.833801</ele>
        <time>2018-04-30T18:14:58Z</time>
      </trkpt>
      <trkpt lat="45.54665" lon="3.38926">
        <ele>529.626648</ele>
        <time>2018-04-30T18:15:20Z</time>
      </trkpt>
      <trkpt lat="45.54691" lon="3.38909">
        <ele>530.152954</ele>
        <time>2018-04-30T18:15:32Z</time>
      </trkpt>
      <trkpt lat="45.54704" lon="3.38897">
        <ele>530.955566</ele>
        <time>2018-04-30T18:15:38Z</time>
      </trkpt>
      <trkpt lat="45.54739" lon="3.38872">
        <ele>521.976196</ele>
        <time>2018-04-30T18:15:54Z</time>
      </trkpt>
      <trkpt lat="45.54757" lon="3.38851">
        <ele>518.969604</ele>
        <time>2018-04-30T18:16:03Z</time>
      </trkpt>
      <trkpt lat="45.54769" lon="3.3882">
        <ele>518.651794</ele>
        <time>2018-04-30T18:16:13Z</time>
      </trkpt>
      <trkpt lat="45.54802" lon="3.38778">
        <ele>506.647827</ele>
        <time>2018-04-30T18:16:31Z</time>
      </trkpt>
      <trkpt lat="45.54811" lon="3.38763">
        <ele>504.989777</ele>
        <time>2018-04-30T18:16:37Z</time>
      </trkpt>
      <trkpt lat="45.54821" lon="3.38738">
        <ele>504.229065</ele>
        <time>2018-04-30T18:16:45Z</time>
      </trkpt>
      <trkpt lat="45.5483" lon="3.38728">
        <ele>501.022858</ele>
        <time>2018-04-30T18:16:50Z</time>
      </trkpt>
      <trkpt lat="45.54847" lon="3.38716">
        <ele>493.005066</ele>
        <time>2018-04-30T18:16:57Z</time>
      </trkpt>
      <trkpt lat="45.54877" lon="3.38682">
        <ele>485.966888</ele>
        <time>2018-04-30T18:17:13Z</time>
      </trkpt>
      <trkpt lat="45.54891" lon="3.38677">
        <ele>480.204834</ele>
        <time>2018-04-30T18:17:19Z</time>
      </trkpt>
      <trkpt lat="45.54899" lon="3.38679">
        <ele>476.793427</ele>
        <time>2018-04-30T18:17:22Z</time>
      </trkpt>
      <trkpt lat="45.54918" lon="3.38667">
        <ele>473.984253</ele>
        <time>2018-04-30T18:17:30Z</time>
      </trkpt>
      <trkpt lat="45.54934" lon="3.38636">
        <ele>473.886658</ele>
        <time>2018-04-30T18:17:41Z</time>
      </trkpt>
      <trkpt lat="45.54948" lon="3.38603">
        <ele>474.753357</ele>
        <time>2018-04-30T18:17:52Z</time>
      </trkpt>
      <trkpt lat="45.54964" lon="3.38571">
        <ele>475.406311</ele>
        <time>2018-04-30T18:18:03Z</time>
      </trkpt>
      <trkpt lat="45.54978" lon="3.38537">
        <ele>475.96286</ele>
        <time>2018-04-30T18:18:14Z</time>
      </trkpt>
      <trkpt lat="45.54991" lon="3.3852">
        <ele>474.168976</ele>
        <time>2018-04-30T18:18:21Z</time>
      </trkpt>
      <trkpt lat="45.55032" lon="3.38463">
        <ele>468.715942</ele>
        <time>2018-04-30T18:18:44Z</time>
      </trkpt>
      <trkpt lat="45.55044" lon="3.38433">
        <ele>469.837097</ele>
        <time>2018-04-30T18:18:54Z</time>
      </trkpt>
      <trkpt lat="45.55066" lon="3.38413">
        <ele>463.813477</ele>
        <time>2018-04-30T18:19:04Z</time>
      </trkpt>
      <trkpt lat="45.55079" lon="3.38391">
        <ele>458.56366</ele>
        <time>2018-04-30T18:19:12Z</time>
      </trkpt>
      <trkpt lat="45.55094" lon="3.38422">
        <ele>458.689911</ele>
        <time>2018-04-30T18:19:23Z</time>
      </trkpt>
      <trkpt lat="45.5512" lon="3.38441">
        <ele>462.19516</ele>
        <time>2018-04-30T18:19:34Z</time>
      </trkpt>
      <trkpt lat="45.55151" lon="3.38389">
        <ele>456.387238</ele>
        <time>2018-04-30T18:19:53Z</time>
      </trkpt>
      <trkpt lat="45.55152" lon="3.38298">
        <ele>450.449982</ele>
        <time>2018-04-30T18:20:19Z</time>
      </trkpt>
      <trkpt lat="45.55184" lon="3.38216">
        <ele>459.97998</ele>
        <time>2018-04-30T18:20:45Z</time>
      </trkpt>
      <trkpt lat="45.55172" lon="3.38174">
        <ele>461.917999</ele>
        <time>2018-04-30T18:20:58Z</time>
      </trkpt>
      <trkpt lat="45.55114" lon="3.38092">
        <ele>461.277496</ele>
        <time>2018-04-30T18:21:31Z</time>
      </trkpt>
      <trkpt lat="45.55112" lon="3.3805">
        <ele>461.148651</ele>
        <time>2018-04-30T18:21:42Z</time>
      </trkpt>
      <trkpt lat="45.55186" lon="3.37988">
        <ele>468.986237</ele>
        <time>2018-04-30T18:22:17Z</time>
      </trkpt>
      <trkpt lat="45.55229" lon="3.37672">
        <ele>466.702057</ele>
        <time>2018-04-30T18:23:46Z</time>
      </trkpt>
      <trkpt lat="45.55148" lon="3.37391">
        <ele>459.498749</ele>
        <time>2018-04-30T18:25:11Z</time>
      </trkpt>
    </trkseg>
  </trk>
</gpx>